Flight Track Log - Related Links

Times and Time Zones

All times are in EDT time to prevent confusion due to time zone crossing. See the AFL150 flight status page for this flight to view local times or setup timezone preferences in your user account.

Time Position Orientation Groundspeed Altitude Reporting Facility
EDT Latitude Longitude Course Direction KTS MPH feet Rate Location/Type
Mon 06:31:06 AM 55.9650 37.3720 255° West 182 209 1,800  Level FlightAware ADS-B
Mon 06:31:36 AM 55.9590 37.3320 255° West 172 198 3,100 2,250 Climbing FlightAware ADS-B
Mon 06:31:46 AM 55.9570 37.3160 257° West 175 201 3,300 1,500 Climbing FlightAware ADS-B
Mon 06:32:12 AM 55.9510 37.2770 255° West 180 207 4,000 1,393 Climbing FlightAware ADS-B
Mon 06:32:42 AM 55.9450 37.2330 256° West 196 226 4,600 943 Climbing FlightAware ADS-B
Mon 06:33:22 AM 55.9480 37.1600 274° West 249 287 5,100 1,200 Climbing FlightAware ADS-B
Mon 06:33:52 AM 55.9560 37.0950 282° West 270 311 6,000 2,040 Climbing FlightAware ADS-B
Mon 06:34:12 AM 55.9610 37.0520 282° West 273 314 6,800 2,533 Climbing FlightAware ADS-B
Mon 06:34:37 AM 55.9660 36.9960 279° West 276 318 7,900 2,400 Climbing FlightAware ADS-B
Mon 06:35:07 AM 55.9720 36.9270 279° West 285 328 9,000 2,267 Climbing FlightAware ADS-B
Mon 06:35:22 AM 55.9750 36.8930 279° West 286 329 9,600 1,745 Climbing FlightAware ADS-B
Mon 06:36:02 AM 55.9830 36.7960 278° West 314 361 10,600 1,125 Climbing FlightAware ADS-B
Mon 06:36:42 AM 55.9760 36.6850 264° West 355 409 11,100 1,200 Climbing FlightAware ADS-B
Mon 06:37:27 AM 55.9900 36.5520 281° West 386 444 12,300 1,867 Climbing FlightAware ADS-B
Mon 06:38:12 AM 56.0080 36.4060 282° West 398 458 13,900 2,118 Climbing FlightAware ADS-B
Mon 06:38:52 AM 56.0240 36.2760 282° West 407 468 15,300 1,920 Climbing FlightAware ADS-B
Mon 06:39:27 AM 56.0380 36.1610 282° West 417 480 16,300 1,920 Climbing FlightAware ADS-B
Mon 06:40:07 AM 56.0550 36.0270 283° West 422 486 17,700 2,047 Climbing FlightAware ADS-B
Mon 06:40:52 AM 56.0740 35.8690 282° West 429 494 19,200 1,840 Climbing FlightAware ADS-B
Mon 06:41:22 AM 56.0860 35.7640 282° West 435 501 20,000 1,600 Climbing FlightAware ADS-B
Mon 06:42:07 AM 56.1050 35.6020 282° West 446 513 21,200 1,624 Climbing FlightAware ADS-B
Mon 06:42:47 AM 56.1220 35.4570 282° West 451 519 22,300 1,680 Climbing FlightAware ADS-B
Mon 06:43:22 AM 56.1370 35.3300 282° West 455 524 23,300 1,425 Climbing FlightAware ADS-B
Mon 06:44:07 AM 56.1560 35.1650 282° West 466 536 24,200 1,059 Climbing FlightAware ADS-B
Mon 06:44:47 AM 56.1730 35.0090 281° West 478 550 24,800 1,425 Climbing FlightAware ADS-B
Mon 06:45:27 AM 56.1900 34.8580 281° West 471 542 26,100 1,694 Climbing FlightAware ADS-B
Mon 06:46:12 AM 56.2090 34.6810 281° West 473 544 27,200 1,271 Climbing FlightAware ADS-B
Mon 06:46:52 AM 56.2260 34.5250 281° West 481 554 27,900 847 Climbing FlightAware ADS-B
Mon 06:47:37 AM 56.2450 34.3490 281° West 494 568 28,400 1,050 Climbing FlightAware ADS-B
Mon 06:48:12 AM 56.2600 34.2090 281° West 491 565 29,300 960 Climbing FlightAware ADS-B
Mon 06:48:52 AM 56.2770 34.0420 280° West 503 579 29,600 450 Climbing FlightAware ADS-B
Mon 06:49:32 AM 56.2940 33.8770 281° West 516 594 29,900 695 Climbing FlightAware ADS-B
Mon 06:50:27 AM 56.3180 33.6430 281° West 520 598 30,700 1,260 Climbing FlightAware ADS-B
Mon 06:51:12 AM 56.3360 33.4590 280° West 506 582 32,000 1,533 Climbing FlightAware ADS-B
Mon 06:51:57 AM 56.3540 33.2700 280° West 501 577 33,000 988 Climbing FlightAware ADS-B
Mon 06:52:37 AM 56.3700 33.1030 280° West 504 580 33,400 675 Climbing FlightAware ADS-B
Mon 06:53:17 AM 56.3860 32.9390 280° West 502 578 33,900 480 Climbing FlightAware ADS-B
Mon 06:53:52 AM 56.3990 32.7970 279° West 502 578 34,000 75 Climbing FlightAware ADS-B
Mon 06:54:37 AM 56.4160 32.6080 279° West 499 574 34,000  Level FlightAware ADS-B
Mon 06:55:12 AM 56.4290 32.4640 279° West 502 578 34,000  Level FlightAware ADS-B
Mon 06:55:53 AM 56.4440 32.3000 279° West 500 575 34,000  Level FlightAware ADS-B
Mon 06:56:32 AM 56.4580 32.1360 279° West 499 574 34,000  Level FlightAware ADS-B
Mon 06:57:23 AM 56.4750 31.9420 279° West 497 572 34,000  Level FlightAware ADS-B
Mon 06:58:15 AM 56.4890 31.7590 278° West 497 572 34,000  Level FlightAware ADS-B
Mon 06:58:51 AM 56.4990 31.6330 278° West 497 572 34,000  Level FlightAware ADS-B
Mon 06:59:39 AM 56.5120 31.4650 278° West 497 572 34,000  Level FlightAware ADS-B
Mon 07:00:15 AM 56.5220 31.3390 278° West 497 572 34,000  Level FlightAware ADS-B
Mon 07:00:51 AM 56.5320 31.2120 278° West 497 572 34,000  Level FlightAware ADS-B
Mon 07:01:39 AM 56.5450 31.0440 278° West 497 572 34,000  Level FlightAware ADS-B
Mon 07:02:15 AM 56.5540 30.9170 277° West 497 572 34,000  Level FlightAware ADS-B
Mon 07:02:51 AM 56.5640 30.7910 278° West 497 572 34,000  Level FlightAware ADS-B
Mon 07:03:51 AM 56.5800 30.5800 278° West 497 572 34,000  Level FlightAware ADS-B
Mon 07:04:27 AM 56.5900 30.4540 278° West 497 572 34,000  Level FlightAware ADS-B
Mon 07:05:15 AM 56.6030 30.2850 278° West 497 572 34,000  Level FlightAware ADS-B
Mon 07:05:51 AM 56.6130 30.1580 278° West 497 572 34,000  Level FlightAware ADS-B
Mon 07:06:51 AM 56.6290 29.9470 278° West 497 572 34,000  Level FlightAware ADS-B
Mon 07:09:00 AM 56.7531 29.5652 301° West  Level Estimated
Mon 07:10:00 AM 56.8105 29.3868 300° West  Level Estimated
Mon 07:11:00 AM 56.8675 29.2078 300° West  Level Estimated
Mon 07:11:02 AM 56.7160 28.5690 300° West 494 568 34,000  Level FlightAware ADS-B
Mon 07:11:41 AM 56.7240 28.4250 276° West 494 568 34,000  Level FlightAware ADS-B
Mon 07:12:27 AM 56.7350 28.2180 276° West 491 565 34,000  Level FlightAware ADS-B
Mon 07:13:07 AM 56.7440 28.0590 276° West 489 563 34,000  Level FlightAware ADS-B
Mon 07:13:47 AM 56.7520 27.8920 275° West 486 559 34,000  Level FlightAware ADS-B
Mon 07:14:32 AM 56.7620 27.7050 276° West 483 556 34,000  Level FlightAware ADS-B
Mon 07:15:12 AM 56.7700 27.5420 275° West 482 555 34,000  Level FlightAware ADS-B
Mon 07:15:57 AM 56.7700 27.3580 270° West 484 557 34,000  Level FlightAware ADS-B
Mon 07:16:37 AM 56.7660 27.1990 267° West 484 557 34,000  Level FlightAware ADS-B
Mon 07:17:22 AM 56.7620 27.0130 268° West 486 559 34,000  Level FlightAware ADS-B
Mon 07:18:02 AM 56.7570 26.8510 267° West 488 562 34,000  Level FlightAware ADS-B
Mon 07:18:37 AM 56.7530 26.7060 267° West 487 560 34,000  Level FlightAware ADS-B
Mon 07:19:22 AM 56.7480 26.5210 267° West 485 558 34,000  Level FlightAware ADS-B
Mon 07:19:57 AM 56.7440 26.3830 267° West 484 557 34,000  Level FlightAware ADS-B
Mon 07:20:42 AM 56.7380 26.2010 267° West 483 556 34,000  Level FlightAware ADS-B
Mon 07:21:27 AM 56.7320 26.0160 267° West 482 555 34,000  Level FlightAware ADS-B
Mon 07:22:07 AM 56.7270 25.8540 267° West 482 555 34,000  Level FlightAware ADS-B
Mon 07:22:47 AM 56.7210 25.6990 266° West 482 555 34,000  Level FlightAware ADS-B
Mon 07:23:32 AM 56.7140 25.5150 266° West 481 554 34,000  Level FlightAware ADS-B
Mon 07:24:13 AM 56.7080 25.3530 266° West 482 555 34,000  Level FlightAware ADS-B
Mon 07:24:57 AM 56.7010 25.1720 266° West 483 556 34,000  Level FlightAware ADS-B
Mon 07:25:32 AM 56.6960 25.0420 266° West 482 555 34,000  Level FlightAware ADS-B
Mon 07:26:22 AM 56.6870 24.8300 266° West 477 549 34,000  Level FlightAware ADS-B
Mon 07:27:02 AM 56.6800 24.6740 265° West 475 547 34,000  Level FlightAware ADS-B
Mon 07:27:42 AM 56.6730 24.5150 265° West 475 547 34,000  Level FlightAware ADS-B
Mon 07:28:27 AM 56.6650 24.3360 265° West 475 547 34,000  Level FlightAware ADS-B
Mon 07:29:07 AM 56.6570 24.1770 265° West 475 547 34,000  Level FlightAware ADS-B
Mon 07:29:47 AM 56.6490 24.0220 265° West 475 547 34,000  Level FlightAware ADS-B
Mon 07:30:27 AM 56.6410 23.8610 265° West 472 543 34,000  Level FlightAware ADS-B
Mon 07:31:07 AM 56.6330 23.7030 265° West 471 542 34,000  Level FlightAware ADS-B
Mon 07:31:51 AM 56.6240 23.5290 265° West 470 541 34,000  Level FlightAware ADS-B
Mon 07:32:31 AM 56.6160 23.3730 265° West 470 541 34,000  Level FlightAware ADS-B
Mon 07:33:15 AM 56.6060 23.2060 264° West 468 539 34,000  Level FlightAware ADS-B
Mon 07:33:57 AM 56.5970 23.0380 265° West 466 536 34,000  Level FlightAware ADS-B
Mon 07:34:37 AM 56.5880 22.8880 264° West 466 536 34,000  Level FlightAware ADS-B
Mon 07:35:13 AM 56.5790 22.7420 264° West 468 539 34,000  Level FlightAware ADS-B
Mon 07:35:57 AM 56.5690 22.5740 264° West 468 539 34,000  Level FlightAware ADS-B
Mon 07:36:37 AM 56.5590 22.4160 264° West 469 540 34,000  Level FlightAware ADS-B
Mon 07:37:13 AM 56.5510 22.2810 264° West 468 539 34,000  Level FlightAware ADS-B
Mon 07:37:53 AM 56.5410 22.1250 263° West 465 535 34,000  Level FlightAware ADS-B
Mon 07:38:31 AM 56.5310 21.9800 263° West 464 534 34,000  Level FlightAware ADS-B
Mon 07:39:11 AM 56.5210 21.8260 263° West 463 533 34,000  Level FlightAware ADS-B
Mon 07:39:55 AM 56.5090 21.6520 263° West 463 533 34,000  Level FlightAware ADS-B
Mon 07:40:35 AM 56.4990 21.5050 263° West 463 533 34,000  Level FlightAware ADS-B
Mon 07:41:15 AM 56.4880 21.3510 263° West 462 532 34,000  Level FlightAware ADS-B
Mon 07:41:51 AM 56.4870 21.2350 269° West 450 518 34,000  Level FlightAware ADS-B
Mon 07:42:39 AM 56.4970 21.0320 275° West 448 516 34,000  Level FlightAware ADS-B
Mon 07:43:23 AM 56.5020 20.8680 273° West 446 513 34,000  Level FlightAware ADS-B
Mon 07:44:06 AM 56.5080 20.7100 274° West 445 512 34,000  Level FlightAware ADS-B
Mon 07:44:38 AM 56.5120 20.5910 274° West 445 512 34,000 88 Level FlightAware ADS-B
Mon 07:45:14 AM 56.5170 20.4560 274° West 438 504 34,100 370 Climbing FlightAware ADS-B
Mon 07:45:59 AM 56.5220 20.2910 273° West 441 507 34,500 565 Climbing FlightAware ADS-B
Mon 07:46:39 AM 56.5270 20.1440 274° West 443 510 34,900 857 Climbing FlightAware ADS-B
Mon 07:47:23 AM 56.5320 19.9820 273° West 439 505 35,700 571 Climbing FlightAware ADS-B
Mon 07:48:03 AM 56.5360 19.8320 273° West 449 517 35,700 225 Level FlightAware ADS-B
Mon 07:48:43 AM 56.5400 19.6820 273° West 453 521 36,000 214 Climbing FlightAware ADS-B
Mon 07:49:27 AM 56.5440 19.5160 273° West 452 520 36,000  Level FlightAware ADS-B
Mon 07:50:08 AM 56.5480 19.3700 273° West 450 518 36,000  Level FlightAware ADS-B
Mon 07:50:51 AM 56.5520 19.2010 273° West 448 516 36,000  Level FlightAware ADS-B
Mon 07:51:31 AM 56.5550 19.0510 272° West 447 514 36,000  Level FlightAware ADS-B
Mon 07:51:59 AM 56.5580 18.9520 273° West 447 514 36,000  Level FlightAware ADS-B
Mon 07:52:43 AM 56.5610 18.7830 272° West 446 513 36,000  Level FlightAware ADS-B
Mon 07:53:27 AM 56.5640 18.6190 272° West 445 512 36,000  Level FlightAware ADS-B
Mon 07:54:09 AM 56.5670 18.4640 272° West 445 512 36,000  Level FlightAware ADS-B
Mon 07:54:47 AM 56.5690 18.3210 272° West 446 513 36,000  Level FlightAware ADS-B
Mon 07:55:33 AM 56.5720 18.1490 272° West 448 516 36,000  Level FlightAware ADS-B
Mon 07:56:13 AM 56.5740 18.0000 271° West 447 514 36,000  Level FlightAware ADS-B
Mon 07:56:57 AM 56.5760 17.8360 271° West 446 513 36,000  Level FlightAware ADS-B
Mon 07:57:37 AM 56.5780 17.6860 271° West 443 510 36,000  Level FlightAware ADS-B
Mon 07:58:21 AM 56.5790 17.5250 271° West 439 505 36,000  Level FlightAware ADS-B
Mon 07:59:01 AM 56.5810 17.3780 271° West 439 505 36,000  Level FlightAware ADS-B
Mon 07:59:45 AM 56.5820 17.2170 271° West 440 506 36,000  Level FlightAware ADS-B
Mon 08:00:25 AM 56.5830 17.0720 271° West 439 505 36,000  Level FlightAware ADS-B
Mon 08:01:09 AM 56.5840 16.9100 271° West 439 505 36,000  Level FlightAware ADS-B
Mon 08:01:49 AM 56.5850 16.7620 271° West 439 505 36,000  Level FlightAware ADS-B
Mon 08:02:33 AM 56.5850 16.6020 270° West 437 503 36,000  Level FlightAware ADS-B
Mon 08:03:11 AM 56.5850 16.4630 270° West 433 498 36,000  Level FlightAware ADS-B
Mon 08:03:55 AM 56.5860 16.3050 271° West 434 499 36,000  Level FlightAware ADS-B
Mon 08:04:35 AM 56.5850 16.1600 269° West 436 502 36,000  Level FlightAware ADS-B
Mon 08:05:17 AM 56.5850 16.0050 270° West 437 503 36,000  Level FlightAware ADS-B
Mon 08:05:54 AM 56.5850 15.8750 270° West 433 498 36,000  Level FlightAware ADS-B
Mon 08:06:37 AM 56.5840 15.7150 269° West 431 496 36,000  Level FlightAware ADS-B
Mon 08:07:14 AM 56.5830 15.5810 269° West 431 496 36,000  Level FlightAware ADS-B
Mon 08:07:53 AM 56.5820 15.4440 269° West 432 497 36,000  Level FlightAware ADS-B
Mon 08:08:37 AM 56.5810 15.2850 269° West 431 496 36,000  Level FlightAware ADS-B
Mon 08:09:17 AM 56.5800 15.1430 269° West 431 496 36,000  Level FlightAware ADS-B
Mon 08:09:59 AM 56.5780 14.9880 269° West 431 496 36,000  Level FlightAware ADS-B
Mon 08:10:43 AM 56.5760 14.8300 269° West 432 497 36,000  Level FlightAware ADS-B
Mon 08:11:25 AM 56.5750 14.6810 269° West 432 497 36,000  Level FlightAware ADS-B
Mon 08:12:05 AM 56.5730 14.5320 269° West 433 498 36,000  Level FlightAware ADS-B
Mon 08:12:41 AM 56.5710 14.4060 268° West 433 498 36,000  Level FlightAware ADS-B
Mon 08:13:21 AM 56.5680 14.2610 268° West 434 499 36,000  Level FlightAware ADS-B
Mon 08:14:05 AM 56.5660 14.1000 269° West 434 499 36,000  Level FlightAware ADS-B
Mon 08:14:41 AM 56.5630 13.9740 268° West 433 498 36,000  Level FlightAware ADS-B
Mon 08:15:29 AM 56.5600 13.8000 268° West 433 498 36,000  Level FlightAware ADS-B
Mon 08:16:09 AM 56.5570 13.6490 268° West 433 498 36,000  Level FlightAware ADS-B
Mon 08:16:52 AM 56.5530 13.4940 267° West 433 498 36,000  Level FlightAware ADS-B
Mon 08:17:33 AM 56.5500 13.3470 268° West 433 498 36,000  Level FlightAware ADS-B
Mon 08:18:15 AM 56.5460 13.1980 267° West 434 499 36,000  Level FlightAware ADS-B
Mon 08:18:55 AM 56.5420 13.0500 267° West 434 499 36,000  Level FlightAware ADS-B
Mon 08:19:35 AM 56.5390 12.9070 268° West 434 499 36,000  Level FlightAware ADS-B
Mon 08:20:15 AM 56.5340 12.7620 266° West 432 497 36,000  Level FlightAware ADS-B
Mon 08:20:59 AM 56.5300 12.6040 267° West 432 497 36,000  Level FlightAware ADS-B
Mon 08:21:41 AM 56.5250 12.4510 267° West 432 497 36,000  Level FlightAware ADS-B
Mon 08:22:21 AM 56.5210 12.3060 267° West 431 496 36,000  Level FlightAware ADS-B
Mon 08:23:05 AM 56.5150 12.1500 266° West 432 497 36,000  Level FlightAware ADS-B
Mon 08:23:41 AM 56.5110 12.0210 267° West 432 497 36,000  Level FlightAware ADS-B
Mon 08:24:21 AM 56.5060 11.8780 266° West 431 496 36,000  Level FlightAware ADS-B
Mon 08:25:03 AM 56.5000 11.7240 266° West 429 494 36,000  Level FlightAware ADS-B
Mon 08:25:39 AM 56.4960 11.5980 267° West 430 495 36,000  Level FlightAware ADS-B
Mon 08:26:23 AM 56.4900 11.4410 266° West 429 494 36,000  Level FlightAware ADS-B
Mon 08:27:03 AM 56.4840 11.3000 266° West 430 495 36,000  Level FlightAware ADS-B
Mon 08:27:43 AM 56.4780 11.1530 266° West 430 495 36,000  Level FlightAware ADS-B
Mon 08:28:28 AM 56.4710 10.9900 266° West 430 495 36,000  Level FlightAware ADS-B
Mon 08:29:08 AM 56.4650 10.8500 266° West 427 491 36,000  Level FlightAware ADS-B
Mon 08:29:49 AM 56.4580 10.7060 265° West 425 489 36,000  Level FlightAware ADS-B
Mon 08:30:25 AM 56.4530 10.5780 266° West 424 488 36,000  Level FlightAware ADS-B
Mon 08:31:07 AM 56.4460 10.4320 265° West 424 488 36,000  Level FlightAware ADS-B
Mon 08:31:51 AM 56.4380 10.2720 265° West 425 489 36,000  Level FlightAware ADS-B
Mon 08:32:31 AM 56.4310 10.1340 265° West 426 490 36,000  Level FlightAware ADS-B
Mon 08:33:15 AM 56.4230 9.9780 265° West 427 491 36,000  Level FlightAware ADS-B
Mon 08:33:55 AM 56.4160 9.8400 265° West 428 493 36,000  Level FlightAware ADS-B
Mon 08:34:37 AM 56.4080 9.6900 265° West 430 495 36,000  Level FlightAware ADS-B
Mon 08:35:17 AM 56.4000 9.5440 264° West 431 496 36,000  Level FlightAware ADS-B
Mon 08:35:55 AM 56.3930 9.4130 265° West 431 496 36,000  Level FlightAware ADS-B
Mon 08:36:37 AM 56.3840 9.2630 264° West 430 495 36,000  Level FlightAware ADS-B
Mon 08:37:17 AM 56.3760 9.1170 264° West 431 496 36,000  Level FlightAware ADS-B
Mon 08:37:52 AM 56.3690 8.9920 264° West 431 496 36,000  Level FlightAware ADS-B
Mon 08:38:36 AM 56.3590 8.8380 263° West 432 497 36,000  Level FlightAware ADS-B
Mon 08:39:16 AM 56.3500 8.6910 264° West 432 497 36,000  Level FlightAware ADS-B
Mon 08:39:58 AM 56.3410 8.5400 264° West 433 498 36,000  Level FlightAware ADS-B
Mon 08:40:42 AM 56.3310 8.3850 263° West 433 498 36,000  Level FlightAware ADS-B
Mon 08:41:58 AM 56.3130 8.1130 263° West 436 502 36,000  Level FlightAware ADS-B
Mon 08:42:42 AM 56.3020 7.9540 263° West 436 502 36,000  Level FlightAware ADS-B
Mon 08:43:22 AM 56.2920 7.8090 263° West 437 503 36,000  Level FlightAware ADS-B
Mon 08:44:08 AM 56.2810 7.6410 263° West 439 505 36,000  Level FlightAware ADS-B
Mon 08:44:52 AM 56.2700 7.4840 263° West 441 507 36,000  Level FlightAware ADS-B
Mon 08:45:30 AM 56.2600 7.3450 263° West 444 511 36,000  Level FlightAware ADS-B
Mon 08:46:16 AM 56.2470 7.1780 262° West 446 513 36,000  Level FlightAware ADS-B
Mon 08:46:56 AM 56.2360 7.0290 262° West 448 516 36,000  Level FlightAware ADS-B
Mon 08:47:36 AM 56.2250 6.8860 262° West 448 516 36,000  Level FlightAware ADS-B
Mon 08:48:18 AM 56.2130 6.7280 262° West 449 517 36,000  Level FlightAware ADS-B
Mon 08:48:52 AM 56.2030 6.6060 262° West 449 517 36,000  Level FlightAware ADS-B
Mon 08:49:38 AM 56.1890 6.4350 262° West 450 518 36,000  Level FlightAware ADS-B
Mon 08:50:14 AM 56.1790 6.3030 262° West 451 519 36,000  Level FlightAware ADS-B
Mon 08:50:56 AM 56.1660 6.1450 262° West 453 521 36,000  Level FlightAware ADS-B
Mon 08:51:36 AM 56.1530 5.9960 261° West 455 524 36,000  Level FlightAware ADS-B
Mon 08:52:16 AM 56.1410 5.8470 262° West 456 525 36,000  Level FlightAware ADS-B
Mon 08:52:52 AM 56.1290 5.7160 261° West 456 525 36,000  Level FlightAware ADS-B
Mon 08:53:32 AM 56.1160 5.5630 261° West 457 526 36,000  Level FlightAware ADS-B
Mon 08:54:14 AM 56.1020 5.4090 261° West 457 526 36,000  Level FlightAware ADS-B
Mon 08:54:49 AM 56.0893 5.2764 261° West 1 1 36,000  Level FlightAware UK
Mon 08:54:56 AM 56.0880 5.2510 261° West 459 528 36,000  Level FlightAware ADS-B
Mon 08:55:38 AM 56.0740 5.0990 261° West 459 528 36,000  Level FlightAware ADS-B
Mon 08:56:18 AM 56.0600 4.9510 260° West 462 532 36,000  Level FlightAware ADS-B
Mon 08:56:58 AM 56.0460 4.7950 261° West 464 534 36,000  Level FlightAware ADS-B
Mon 08:57:31 AM 56.0312 4.6708 261° West 1 1 36,000  Level FlightAware UK
Mon 08:57:39 AM 56.0320 4.6550 261° West 465 535 36,000  Level FlightAware ADS-B
Mon 08:58:18 AM 56.0190 4.5150 261° West 467 537 36,000  Level FlightAware ADS-B
Mon 08:58:55 AM 56.0029 4.3463 261° West 468 539 36,000  Level FlightAware UK
Mon 08:59:03 AM 56.0010 4.3390 261° West 468 539 36,000  Level FlightAware ADS-B
Mon 08:59:37 AM 55.9873 4.1874 261° West 468 539 36,000  Level FlightAware UK
Mon 08:59:38 AM 55.9900 4.2230 261° West 469 540 36,000  Level FlightAware ADS-B
Mon 09:00:18 AM 55.9730 4.0570 260° West 469 540 36,000  Level FlightAware ADS-B
Mon 09:00:58 AM 55.9580 3.9050 260° West 468 539 36,000  Level FlightAware ADS-B
Mon 09:01:43 AM 55.9450 3.7770 260° West 467 537 36,000  Level FlightAware ADS-B
Mon 09:02:24 AM 55.9250 3.5900 260° West 466 536 36,000  Level FlightAware ADS-B
Mon 09:02:25 AM 55.9223 3.5519 260° West 470 541 36,000  Level FlightAware UK
Mon 09:02:55 AM 55.9124 3.4385 260° West 468 539 36,000  Level FlightAware UK
Mon 09:03:09 AM 55.9140 3.4080 260° West 464 534 36,000  Level FlightAware ADS-B
Mon 09:03:43 AM 55.9110 3.2850 268° West 464 534 36,000  Level FlightAware ADS-B
Mon 09:04:24 AM 55.9080 3.1510 268° West 464 534 36,000  Level FlightAware ADS-B
Mon 09:05:03 AM 55.9030 2.9640 267° West 465 535 36,000  Level FlightAware ADS-B
Mon 09:05:43 AM 55.8990 2.8130 267° West 466 536 36,000  Level FlightAware ADS-B
Mon 09:06:24 AM 55.8950 2.6600 267° West 464 534 36,000  Level FlightAware ADS-B
Mon 09:07:04 AM 55.8910 2.5250 267° West 462 532 36,000  Level FlightAware ADS-B
Mon 09:07:49 AM 55.8858 2.3215 267° West 468 539 36,000  Level FlightAware UK
Mon 09:08:02 AM 55.8880 2.2750 267° West 458 527 36,000  Level FlightAware ADS-B
Mon 09:08:41 AM 55.8920 2.1350 273° West 457 526 36,000  Level FlightAware ADS-B
Mon 09:09:26 AM 55.8950 1.9640 272° West 455 524 36,000  Level FlightAware ADS-B
Mon 09:10:06 AM 55.8984 1.8064 272° West 468 539 36,000  Level FlightAware UK
Mon 09:10:06 AM 55.8980 1.8170 272° West 454 522 36,000  Level FlightAware ADS-B
Mon 09:10:48 AM 55.9007 1.6490 272° West 468 539 36,000  Level FlightAware UK
Mon 09:10:51 AM 55.9010 1.6480 272° West 454 522 36,000  Level FlightAware ADS-B
Mon 09:11:27 AM 55.9030 1.5180 272° West 453 521 36,000  Level FlightAware ADS-B
Mon 09:12:12 AM 55.9059 1.3371 272° West 464 534 36,000  Level FlightAware UK
Mon 09:12:21 AM 55.9060 1.3380 272° West 452 520 36,000  Level FlightAware ADS-B
Mon 09:13:12 AM 55.9080 1.1660 271° West 452 520 36,000  Level FlightAware ADS-B
Mon 09:13:56 AM 55.9110 0.9610 272° West 451 519 36,000  Level FlightAware ADS-B
Mon 09:14:36 AM 55.9127 0.8048 272° West 466 536 36,000  Level FlightAware UK
Mon 09:14:36 AM 55.9130 0.8140 272° West 451 519 36,000  Level FlightAware ADS-B
Mon 09:15:18 AM 55.9145 0.6502 272° West 466 536 36,000  Level FlightAware UK
Mon 09:15:26 AM 55.9140 0.6280 272° West 451 519 36,000  Level FlightAware ADS-B
Mon 09:16:26 AM 55.9160 0.4060 271° West 448 516 36,000  Level FlightAware ADS-B
Mon 09:17:07 AM 55.9170 0.2600 271° West 446 513 36,000  Level FlightAware ADS-B
Mon 09:17:41 AM 55.9182 0.1226 271° West 466 536 36,000  Level FlightAware UK
Mon 09:17:46 AM 55.9180 0.1190 271° West 444 511 36,000  Level FlightAware ADS-B
Mon 09:18:26 AM 55.9190 -0.0320 271° West 444 511 36,000  Level FlightAware ADS-B
Mon 09:18:59 AM 55.9192 -0.1603 271° West 462 532 36,000  Level FlightAware UK
Mon 09:19:09 AM 55.9190 -0.1760 271° West 445 512 36,000  Level FlightAware ADS-B
Mon 09:19:46 AM 55.9190 -0.3250 270° West 447 514 36,000  Level FlightAware ADS-B
Mon 09:20:16 AM 55.9200 -0.4310 271° West 449 517 36,000  Level FlightAware ADS-B
Mon 09:21:01 AM 55.9200 -0.6020 270° West 452 520 36,000  Level FlightAware ADS-B
Mon 09:21:41 AM 55.9190 -0.7500 269° West 454 522 36,000  Level FlightAware ADS-B
Mon 09:22:26 AM 55.9190 -0.9190 270° West 454 522 36,000  Level FlightAware ADS-B
Mon 09:23:06 AM 55.9180 -1.0660 269° West 453 521 36,000  Level FlightAware ADS-B
Mon 09:23:41 AM 55.9180 -1.1970 270° West 451 519 36,000  Level FlightAware ADS-B
Mon 09:24:21 AM 55.9170 -1.3420 269° West 451 519 36,000  Level FlightAware ADS-B
Mon 09:25:10 AM 55.9152 -1.5364 269° West 464 534 36,000  Level FlightAware UK
Mon 09:25:26 AM 55.9150 -1.5860 269° West 452 520 36,000  Level FlightAware ADS-B
Mon 09:26:22 AM 55.9127 -1.8030 269° West 464 534 36,000  Level FlightAware UK
Mon 09:26:46 AM 55.9120 -1.8580 269° West 451 519 36,000  Level FlightAware ADS-B
Mon 09:27:22 AM 55.9100 -2.0120 269° West 450 518 36,000  Level FlightAware ADS-B
Mon 09:27:52 AM 55.9087 -2.1349 269° West 464 534 36,000  Level FlightAware UK
Mon 09:28:03 AM 55.9080 -2.1610 269° West 449 517 36,000  Level FlightAware ADS-B
Mon 09:28:40 AM 55.8950 -2.3098 269° West 462 532 36,000  Level FlightAware UK
Mon 09:28:48 AM 55.8920 -2.3330 269° West 449 517 36,000  Level FlightAware ADS-B
Mon 09:29:18 AM 55.8790 -2.4360 257° West 450 518 36,000  Level FlightAware ADS-B
Mon 09:29:56 AM 55.8610 -2.5770 257° West 450 518 36,000  Level FlightAware ADS-B
Mon 09:29:58 AM 55.8599 -2.5901 257° West 464 534 36,000  Level FlightAware UK
Mon 09:30:40 AM 55.8407 -2.7410 257° West 464 534 36,000  Level FlightAware UK
Mon 09:30:42 AM 55.8400 -2.7450 257° West 452 520 36,000  Level FlightAware ADS-B
Mon 09:31:16 AM 55.8241 -2.8711 257° West 464 534 36,000  Level FlightAware UK
Mon 09:31:24 AM 55.8200 -2.8990 257° West 451 519 36,000  Level FlightAware ADS-B
Mon 09:31:58 AM 55.8043 -3.0225 257° West 466 536 36,000  Level FlightAware UK
Mon 09:32:03 AM 55.8030 -3.0290 257° West 452 520 36,000  Level FlightAware ADS-B
Mon 09:32:54 AM 55.7780 -3.2210 257° West 451 519 36,000  Level FlightAware ADS-B
Mon 09:33:36 AM 55.7590 -3.3650 257° West 449 517 36,000  Level FlightAware ADS-B
Mon 09:34:16 AM 55.7410 -3.5030 257° West 449 517 36,000  Level FlightAware ADS-B
Mon 09:35:27 AM 55.7050 -3.7680 257° West 450 518 36,000  Level FlightAware ADS-B
Mon 09:36:04 AM 55.6880 -3.8930 257° West 452 520 36,000  Level FlightAware ADS-B
Mon 09:36:09 AM 55.6850 -3.9267 257° West 464 534 36,000  Level FlightAware UK
Mon 09:36:49 AM 55.6930 -4.0710 273° West 459 528 36,000  Level FlightAware ADS-B
Mon 09:37:29 AM 55.7030 -4.2030 278° West 459 528 36,000  Level FlightAware ADS-B
Mon 09:38:25 AM 55.7200 -4.4240 278° West 459 528 36,000  Level FlightAware ADS-B
Mon 09:38:27 AM 55.7208 -4.4396 278° West 464 534 36,000  Level FlightAware UK
Mon 09:39:03 AM 55.7308 -4.5745 278° West 464 534 36,000  Level FlightAware UK
Mon 09:39:06 AM 55.7310 -4.5770 278° West 460 529 36,000  Level FlightAware ADS-B
Mon 09:39:35 AM 55.7390 -4.6870 277° West 460 529 36,000  Level FlightAware ADS-B
Mon 09:40:20 AM 55.7510 -4.8590 277° West 460 529 36,000  Level FlightAware ADS-B
Mon 09:41:00 AM 55.7610 -5.0010 277° West 461 531 36,000  Level FlightAware ADS-B
Mon 09:41:35 AM 55.7690 -5.1400 276° West 461 531 36,000  Level FlightAware ADS-B
Mon 09:42:15 AM 55.7780 -5.2690 277° West 461 531 36,000  Level FlightAware ADS-B
Mon 09:42:56 AM 55.7870 -5.4260 276° West 461 531 36,000  Level FlightAware ADS-B
Mon 09:43:39 AM 55.7986 -5.6096 276° West 466 536 36,000  Level FlightAware UK
Mon 09:43:48 AM 55.8000 -5.6300 276° West 460 529 36,000  Level FlightAware ADS-B
Mon 09:44:34 AM 55.8100 -5.8070 276° West 459 528 36,000  Level FlightAware ADS-B
Mon 09:45:15 AM 55.8197 -5.9690 276° West 464 534 36,000  Level FlightAware UK
Mon 09:45:15 AM 55.8190 -5.9580 276° West 458 527 36,000  Level FlightAware ADS-B
Mon 09:45:45 AM 55.8259 -6.0809 276° West 462 532 36,000  Level FlightAware UK
Mon 09:45:54 AM 55.8270 -6.1080 276° West 458 527 36,000  Level FlightAware ADS-B
Mon 09:46:39 AM 55.8370 -6.2790 276° West 459 528 36,000  Level FlightAware ADS-B
Mon 09:47:19 AM 55.8450 -6.4280 276° West 460 529 36,000  Level FlightAware ADS-B
Mon 09:47:21 AM 55.8454 -6.4392 276° West 464 534 36,000  Level FlightAware UK
Mon 09:47:51 AM 55.8513 -6.5518 276° West 464 534 36,000  Level FlightAware UK
Mon 09:48:05 AM 55.8540 -6.5980 276° West 459 528 36,000  Level FlightAware ADS-B
Mon 09:48:44 AM 55.8610 -6.7380 275° West 458 527 36,000  Level FlightAware ADS-B
Mon 09:49:27 AM 55.8696 -6.9122 275° West 460 529 36,000  Level FlightAware UK
Mon 09:49:27 AM 55.8690 -6.9050 275° West 458 527 36,000  Level FlightAware ADS-B
Mon 09:49:57 AM 55.8750 -7.0247 275° West 464 534 36,000  Level FlightAware UK
Mon 09:50:07 AM 55.8770 -7.0580 275° West 459 528 36,000  Level FlightAware ADS-B
Mon 09:50:47 AM 55.8840 -7.2110 275° West 460 529 36,000  Level FlightAware ADS-B
Mon 09:51:32 AM 55.8910 -7.3740 275° West 461 531 36,000  Level FlightAware ADS-B
Mon 09:51:33 AM 55.8919 -7.3860 275° West 462 532 36,000  Level FlightAware UK
Mon 09:52:08 AM 55.8979 -7.5214 275° West 462 532 36,000  Level FlightAware UK
Mon 09:52:12 AM 55.8980 -7.5320 275° West 462 532 36,000  Level FlightAware ADS-B
Mon 09:52:52 AM 55.9050 -7.6830 275° West 464 534 36,000  Level FlightAware ADS-B
Mon 09:53:38 AM 55.9127 -7.8634 275° West 462 532 36,000  Level FlightAware UK
Mon 09:53:49 AM 55.9140 -7.8960 275° West 465 535 36,000  Level FlightAware ADS-B
Mon 09:54:29 AM 55.9200 -8.0510 274° West 467 537 36,000  Level FlightAware ADS-B
Mon 09:55:08 AM 55.9264 -8.2076 274° West 462 532 36,000  Level FlightAware UK
Mon 09:55:09 AM 55.9260 -8.2010 274° West 468 539 36,000 130 Level FlightAware ADS-B
Mon 09:55:54 AM 55.9330 -8.3750 274° West 466 536 36,100 279 Climbing FlightAware ADS-B
Mon 09:56:35 AM 55.9380 -8.5340 273° West 462 532 36,400 486 Climbing FlightAware ADS-B
Mon 09:57:08 AM 55.9432 -8.6653 273° West 462 532 36,700 533 Climbing FlightAware UK
Mon 09:57:20 AM 55.9440 -8.7050 273° West 462 532 36,800 346 Climbing FlightAware ADS-B
Mon 09:58:00 AM 55.9500 -8.8540 274° West 459 528 37,000 150 Climbing FlightAware ADS-B
Mon 09:58:40 AM 55.9550 -9.0110 273° West 457 526 37,000  Level FlightAware ADS-B
Mon 09:59:21 AM 55.9590 -9.1600 273° West 455 524 37,000  Level FlightAware ADS-B
Mon 10:00:01 AM 55.9640 -9.3090 273° West 456 525 37,000  Level FlightAware ADS-B
Mon 10:00:47 AM 55.9690 -9.4750 273° West 455 524 37,000  Level FlightAware ADS-B
Mon 10:01:26 AM 55.9730 -9.6300 273° West 454 522 37,000  Level FlightAware ADS-B
Mon 10:02:11 AM 55.9770 -9.7960 273° West 455 524 37,000  Level FlightAware ADS-B
Mon 10:03:09 AM 55.9830 -10.0130 273° West 456 525 37,000  Level FlightAware ADS-B
Mon 10:03:50 AM 55.9860 -10.1630 272° West 456 525 37,000  Level FlightAware ADS-B
Mon 10:04:30 AM 55.9890 -10.3170 272° West 458 527 37,000  Level FlightAware ADS-B
Mon 10:05:15 AM 55.9930 -10.4850 273° West 459 528 37,000  Level FlightAware ADS-B
Mon 10:05:55 AM 55.9960 -10.6390 272° West 458 527 37,000  Level FlightAware ADS-B
Mon 10:06:35 AM 55.9980 -10.7820 271° West 458 527 37,000  Level FlightAware ADS-B
Mon 10:07:20 AM 56.0010 -10.9570 272° West 458 527 37,000  Level FlightAware ADS-B
Mon 10:08:05 AM 56.0040 -11.1260 272° West 457 526 37,000  Level FlightAware ADS-B
Mon 10:08:45 AM 56.0060 -11.2770 271° West 457 526 37,000  Level FlightAware ADS-B
Mon 10:09:25 AM 56.0080 -11.4290 271° West 457 526 37,000  Level FlightAware ADS-B
Mon 10:10:05 AM 56.0100 -11.5790 271° West 458 527 37,000  Level FlightAware ADS-B
Mon 10:10:45 AM 56.0110 -11.7290 271° West 458 527 37,000  Level FlightAware ADS-B
Mon 10:11:35 AM 56.0130 -11.9200 271° West 458 527 37,000  Level FlightAware ADS-B
Mon 10:12:13 AM 56.0140 -12.0500 271° West 459 528 37,000  Level FlightAware ADS-B
Mon 10:12:50 AM 56.0150 -12.1970 271° West 460 529 37,000  Level FlightAware ADS-B
Mon 10:13:18 AM 56.0150 -12.2870 270° West 460 529 37,000  Level FlightAware ADS-B
Mon 10:14:06 AM 56.0150 -12.4430 270° West 460 529 37,000  Level FlightAware ADS-B
Mon 10:14:43 AM 56.0150 -12.5630 270° West 460 529 37,000  Level FlightAware ADS-B
Mon 10:15:41 AM 56.0150 -12.7500 270° West 460 529 37,000  Level FlightAware ADS-B
Mon 10:16:17 AM 56.0150 -12.8670 270° West 460 529 37,000  Level FlightAware ADS-B
Mon 10:17:05 AM 56.0150 -13.0220 270° West 460 529 37,000  Level FlightAware ADS-B
Mon 10:17:42 AM 56.0150 -13.1420 270° West 460 529 37,000  Level FlightAware ADS-B
Mon 10:18:28 AM 56.0150 -13.2910 270° West 460 529 37,000  Level FlightAware ADS-B
Mon 10:19:04 AM 56.0150 -13.4070 270° West 460 529 37,000  Level FlightAware ADS-B
Mon 10:19:52 AM 56.0150 -13.5620 270° West 460 529 37,000  Level FlightAware ADS-B
Mon 10:20:29 AM 56.0150 -13.6820 270° West 460 529 37,000  Level FlightAware ADS-B
Mon 10:21:18 AM 56.0150 -13.8410 270° West 460 529 37,000  Level FlightAware ADS-B
Mon 10:21:55 AM 56.0150 -13.9610 270° West 460 529 37,000  Level FlightAware ADS-B
Mon 10:24:00 AM 55.9972 -14.3821 266° West  Level Estimated
Mon 10:25:00 AM 55.9868 -14.6140 266° West  Level Estimated
Mon 10:26:00 AM 55.9759 -14.8458 265° West  Level Estimated
Mon 10:27:00 AM 55.9646 -15.0775 265° West  Level Estimated
Mon 10:28:00 AM 55.9529 -15.3090 265° West  Level Estimated
Mon 10:29:00 AM 55.9408 -15.5404 265° West  Level Estimated
Mon 10:30:00 AM 55.9282 -15.7717 265° West  Level Estimated
Mon 10:31:00 AM 55.9151 -16.0028 264° West  Level Estimated
Mon 10:32:00 AM 55.9017 -16.2337 264° West  Level Estimated
Mon 10:33:00 AM 55.8878 -16.4645 264° West  Level Estimated
Mon 10:34:00 AM 55.8735 -16.6951 264° West  Level Estimated
Mon 10:35:00 AM 55.8587 -16.9256 264° West  Level Estimated
Mon 10:36:00 AM 55.8435 -17.1558 263° West  Level Estimated
Mon 10:37:00 AM 55.8279 -17.3859 263° West  Level Estimated
Mon 10:38:00 AM 55.8119 -17.6158 263° West  Level Estimated
Mon 10:39:00 AM 55.7954 -17.8455 263° West  Level Estimated
Mon 10:40:00 AM 55.7785 -18.0750 263° West  Level Estimated
Mon 10:41:00 AM 55.7612 -18.3043 262° West  Level Estimated
Mon 10:42:00 AM 55.7434 -18.5334 262° West  Level Estimated
Mon 10:43:00 AM 55.7253 -18.7623 262° West  Level Estimated
Mon 10:44:00 AM 55.7067 -18.9909 262° West  Level Estimated
Mon 10:45:00 AM 55.6876 -19.2194 262° West  Level Estimated
Mon 10:46:00 AM 55.6682 -19.4476 261° West  Level Estimated
Mon 10:47:00 AM 55.6483 -19.6756 261° West  Level Estimated
Mon 10:47:00 AM 57.0000 -20.0000 285° West 479 551 37,000  Level ETMS Enhanced Traffic Management System
Mon 10:48:00 AM 55.6280 -19.9033 261° West  Level Estimated
Mon 10:49:00 AM 55.6073 -20.1309 261° West  Level Estimated
Mon 10:50:00 AM 55.5862 -20.3581 261° West  Level Estimated
Mon 10:51:00 AM 55.5646 -20.5852 261° West  Level Estimated
Mon 10:52:00 AM 55.5426 -20.8120 260° West  Level Estimated
Mon 10:53:00 AM 57.2261 -21.6656 283° West 479 551 37,000  Level FlightAware Transoceanic
Mon 10:54:00 AM 57.2566 -21.9051 283° West 479 551 37,000  Level FlightAware Transoceanic
Mon 10:55:00 AM 57.2867 -22.1451 283° West 479 551 37,000  Level FlightAware Transoceanic
Mon 10:56:00 AM 57.3162 -22.3854 283° West 479 551 37,000  Level FlightAware Transoceanic
Mon 10:57:00 AM 57.3454 -22.6262 283° West 479 551 37,000  Level FlightAware Transoceanic
Mon 10:58:00 AM 57.3740 -22.8673 282° West 479 551 37,000  Level FlightAware Transoceanic
Mon 10:59:00 AM 57.4022 -23.1088 282° West 479 551 37,000  Level FlightAware Transoceanic
Mon 11:00:00 AM 57.4300 -23.3506 282° West 479 551 37,000  Level FlightAware Transoceanic
Mon 11:01:00 AM 57.4572 -23.5928 282° West 479 551 37,000  Level FlightAware Transoceanic
Mon 11:02:00 AM 57.4840 -23.8354 282° West 479 551 37,000  Level FlightAware Transoceanic
Mon 11:03:00 AM 57.5104 -24.0784 281° West 479 551 37,000  Level FlightAware Transoceanic
Mon 11:04:00 AM 57.5363 -24.3216 281° West 479 551 37,000  Level FlightAware Transoceanic
Mon 11:05:00 AM 57.5617 -24.5653 281° West 479 551 37,000  Level FlightAware Transoceanic
Mon 11:06:00 AM 57.5866 -24.8092 281° West 479 551 37,000  Level FlightAware Transoceanic
Mon 11:07:00 AM 57.6111 -25.0535 280° West 479 551 37,000  Level FlightAware Transoceanic
Mon 11:08:00 AM 57.6351 -25.2981 280° West 479 551 37,000  Level FlightAware Transoceanic
Mon 11:09:00 AM 57.6586 -25.5431 280° West 479 551 37,000  Level FlightAware Transoceanic
Mon 11:10:00 AM 57.6816 -25.7883 280° West 479 551 37,000  Level FlightAware Transoceanic
Mon 11:11:00 AM 57.7042 -26.0339 280° West 479 551 37,000  Level FlightAware Transoceanic
Mon 11:12:00 AM 57.7263 -26.2798 279° West 479 551 37,000  Level FlightAware Transoceanic
Mon 11:13:00 AM 57.7479 -26.5259 279° West 479 551 37,000  Level FlightAware Transoceanic
Mon 11:14:00 AM 57.7691 -26.7724 279° West 479 551 37,000  Level FlightAware Transoceanic
Mon 11:15:00 AM 57.7897 -27.0191 279° West 479 551 37,000  Level FlightAware Transoceanic
Mon 11:16:00 AM 57.8099 -27.2661 279° West 479 551 37,000  Level FlightAware Transoceanic
Mon 11:17:00 AM 57.8296 -27.5134 278° West 479 551 37,000  Level FlightAware Transoceanic
Mon 11:18:00 AM 57.8488 -27.7610 278° West 479 551 37,000  Level FlightAware Transoceanic
Mon 11:19:00 AM 57.8676 -28.0088 278° West 479 551 37,000  Level FlightAware Transoceanic
Mon 11:20:00 AM 57.8858 -28.2569 278° West 479 551 37,000  Level FlightAware Transoceanic
Mon 11:21:00 AM 57.9036 -28.5052 278° West 479 551 37,000  Level FlightAware Transoceanic
Mon 11:22:00 AM 57.9209 -28.7538 277° West 479 551 37,000  Level FlightAware Transoceanic
Mon 11:23:00 AM 57.9377 -29.0026 277° West 479 551 37,000  Level FlightAware Transoceanic
Mon 11:24:00 AM 57.9540 -29.2516 277° West 479 551 37,000  Level FlightAware Transoceanic
Mon 11:25:00 AM 57.9698 -29.5009 277° West 479 551 37,000  Level FlightAware Transoceanic
Mon 11:26:00 AM 57.9851 -29.7503 277° West 479 551 37,000 -8 Level FlightAware Transoceanic
Mon 11:27:00 AM 57.9997 -29.9943 277° West  Level FlightAware Approximate
Mon 11:28:00 AM 58.0136 -30.2386 276° West  Level FlightAware Approximate
Mon 11:29:00 AM 58.0311 -30.2268 285° West  Level FlightAware Approximate
Mon 11:30:00 AM 58.0632 -30.4651 284° West  Level FlightAware Approximate
Mon 11:31:00 AM 58.0949 -30.7038 284° West  Level FlightAware Approximate
Mon 11:32:00 AM 58.1261 -30.9430 284° West  Level FlightAware Approximate
Mon 11:33:00 AM 58.1570 -31.1826 284° West  Level FlightAware Approximate
Mon 11:34:00 AM 58.1873 -31.4225 284° West  Level FlightAware Approximate
Mon 11:35:00 AM 58.2172 -31.6629 283° West  Level FlightAware Approximate
Mon 11:36:00 AM 58.2467 -31.9037 283° West  Level FlightAware Approximate
Mon 11:37:00 AM 58.2757 -32.1449 283° West  Level FlightAware Approximate
Mon 11:38:00 AM 58.3042 -32.3864 283° West  Level FlightAware Approximate
Mon 11:39:00 AM 58.3323 -32.6284 283° West  Level FlightAware Approximate
Mon 11:40:00 AM 58.3604 -32.8705 283° West  Level FlightAware Approximate
Mon 11:41:00 AM 58.3891 -33.1126 283° West  Level FlightAware Approximate
Mon 11:42:00 AM 58.4173 -33.3551 283° West  Level FlightAware Approximate
Mon 11:43:00 AM 58.4450 -33.5980 282° West  Level FlightAware Approximate
Mon 11:44:00 AM 58.4723 -33.8413 282° West  Level FlightAware Approximate
Mon 11:45:00 AM 58.4992 -34.0849 282° West  Level FlightAware Approximate
Mon 11:46:00 AM 58.5255 -34.3289 282° West  Level FlightAware Approximate
Mon 11:47:00 AM 58.5514 -34.5732 282° West  Level FlightAware Approximate
Mon 11:48:00 AM 58.5769 -34.8180 281° West  Level FlightAware Approximate
Mon 11:49:00 AM 58.6018 -35.0630 281° West  Level FlightAware Approximate
Mon 11:50:00 AM 58.6263 -35.3085 281° West  Level FlightAware Approximate
Mon 11:51:00 AM 58.6503 -35.5542 281° West  Level FlightAware Approximate
Mon 11:52:00 AM 58.6739 -35.8003 281° West  Level FlightAware Approximate
Mon 11:53:00 AM 58.6970 -36.0468 280° West  Level FlightAware Approximate
Mon 11:54:00 AM 58.7196 -36.2935 280° West  Level FlightAware Approximate
Mon 11:55:00 AM 58.7418 -36.5406 280° West  Level FlightAware Approximate
Mon 11:56:00 AM 58.7635 -36.7880 280° West  Level FlightAware Approximate
Mon 11:57:00 AM 58.7846 -37.0357 279° West  Level FlightAware Approximate
Mon 11:58:00 AM 58.8054 -37.2836 279° West  Level FlightAware Approximate
Mon 11:59:00 AM 58.8256 -37.5319 279° West  Level FlightAware Approximate
Mon 12:00:00 PM 58.8454 -37.7805 279° West  Level FlightAware Approximate
Mon 12:01:00 PM 58.8647 -38.0294 279° West  Level FlightAware Approximate
Mon 12:02:00 PM 58.8835 -38.2785 278° West  Level FlightAware Approximate
Mon 12:03:00 PM 58.9019 -38.5279 278° West  Level FlightAware Approximate
Mon 12:04:00 PM 58.9197 -38.7775 278° West  Level FlightAware Approximate
Mon 12:05:00 PM 58.9371 -39.0274 278° West  Level FlightAware Approximate
Mon 12:06:00 PM 58.9540 -39.2776 278° West  Level FlightAware Approximate
Mon 12:07:00 PM 58.9704 -39.5280 277° West  Level FlightAware Approximate
Mon 12:08:00 PM 58.9863 -39.7786 277° West  Level FlightAware Approximate
Mon 12:09:00 PM 59.0011 -40.0296 274° West  Level FlightAware Approximate
Mon 12:10:00 PM 59.0106 -40.2817 274° West  Level FlightAware Approximate
Mon 12:11:00 PM 59.0195 -40.5339 274° West  Level FlightAware Approximate
Mon 12:12:00 PM 59.0280 -40.7862 274° West  Level FlightAware Approximate
Mon 12:13:00 PM 59.0359 -41.0387 274° West  Level FlightAware Approximate
Mon 12:14:00 PM 59.0434 -41.2912 273° West  Level FlightAware Approximate
Mon 12:15:00 PM 59.0504 -41.5439 273° West  Level FlightAware Approximate
Mon 12:16:00 PM 59.0569 -41.7966 273° West  Level FlightAware Approximate
Mon 12:17:00 PM 59.0629 -42.0495 273° West  Level FlightAware Approximate
Mon 12:18:00 PM 59.0684 -42.3024 273° West  Level FlightAware Approximate
Mon 12:19:00 PM 59.0734 -42.5555 272° West  Level FlightAware Approximate
Mon 12:20:00 PM 59.0779 -42.8086 272° West  Level FlightAware Approximate
Mon 12:21:00 PM 59.0819 -43.0617 272° West  Level FlightAware Approximate
Mon 12:22:00 PM 59.0854 -43.3149 272° West  Level FlightAware Approximate
Mon 12:23:00 PM 59.0885 -43.5682 271° West  Level FlightAware Approximate
Mon 12:24:00 PM 59.0910 -43.8215 271° West  Level FlightAware Approximate
Mon 12:25:00 PM 59.0931 -44.0748 271° West  Level FlightAware Approximate
Mon 12:26:00 PM 59.0946 -44.3282 271° West  Level FlightAware Approximate
Mon 12:27:00 PM 59.0957 -44.5816 271° West  Level FlightAware Approximate
Mon 12:28:00 PM 59.0962 -44.8349 270° West  Level FlightAware Approximate
Mon 12:29:00 PM 59.0963 -45.0883 270° West  Level FlightAware Approximate
Mon 12:30:00 PM 59.0959 -45.3417 270° West  Level FlightAware Approximate
Mon 12:31:00 PM 59.0950 -45.5951 270° West  Level FlightAware Approximate
Mon 12:32:00 PM 59.0936 -45.8485 269° West  Level FlightAware Approximate
Mon 12:33:00 PM 59.0917 -46.1018 269° West  Level FlightAware Approximate
Mon 12:34:00 PM 59.0893 -46.3551 269° West  Level FlightAware Approximate
Mon 12:35:00 PM 59.0864 -46.6084 269° West  Level FlightAware Approximate
Mon 12:36:00 PM 59.0830 -46.8616 269° West  Level FlightAware Approximate
Mon 12:37:00 PM 59.0792 -47.1148 268° West  Level FlightAware Approximate
Mon 12:38:00 PM 59.0748 -47.3679 268° West  Level FlightAware Approximate
Mon 12:39:00 PM 59.0699 -47.6210 268° West  Level FlightAware Approximate
Mon 12:40:00 PM 59.0646 -47.8739 268° West  Level FlightAware Approximate
Mon 12:41:00 PM 59.0587 -48.1268 268° West  Level FlightAware Approximate
Mon 12:42:00 PM 59.0524 -48.3796 267° West  Level FlightAware Approximate
Mon 12:43:00 PM 59.0456 -48.6323 267° West  Level FlightAware Approximate
Mon 12:44:00 PM 59.0382 -48.8849 267° West  Level FlightAware Approximate
Mon 12:45:00 PM 59.0304 -49.1374 267° West  Level FlightAware Approximate
Mon 12:46:00 PM 59.0221 -49.3898 266° West  Level FlightAware Approximate
Mon 12:47:00 PM 59.0133 -49.6420 266° West  Level FlightAware Approximate
Mon 12:48:00 PM 59.0041 -49.8941 266° West  Level FlightAware Approximate
Mon 12:49:00 PM 58.9785 -50.1404 254° West  Level FlightAware Approximate
Mon 12:50:00 PM 58.9411 -50.3822 253° West  Level FlightAware Approximate
Mon 12:51:00 PM 58.9033 -50.6234 253° West  Level FlightAware Approximate
Mon 12:52:00 PM 58.8650 -50.8641 253° West  Level FlightAware Approximate
Mon 12:53:00 PM 58.8263 -51.1043 253° West  Level FlightAware Approximate
Mon 12:54:00 PM 58.7871 -51.3439 253° West  Level FlightAware Approximate
Mon 12:55:00 PM 58.7475 -51.5830 252° West  Level FlightAware Approximate
Mon 12:56:00 PM 58.7075 -51.8216 252° West  Level FlightAware Approximate
Mon 12:57:00 PM 58.6670 -52.0596 252° West  Level FlightAware Approximate
Mon 12:58:00 PM 58.6262 -52.2971 252° West  Level FlightAware Approximate
Mon 12:59:00 PM 58.5848 -52.5340 252° West  Level FlightAware Approximate
Mon 01:00:00 PM 58.5431 -52.7703 251° West  Level FlightAware Approximate
Mon 01:01:00 PM 58.5009 -53.0061 251° West  Level FlightAware Approximate
Mon 01:02:00 PM 58.4583 -53.2413 251° West  Level FlightAware Approximate
Mon 01:03:00 PM 58.4152 -53.4759 251° West  Level FlightAware Approximate
Mon 01:04:00 PM 58.3717 -53.7100 251° West  Level FlightAware Approximate
Mon 01:05:00 PM 58.3278 -53.9435 250° West  Level FlightAware Approximate
Mon 01:06:00 PM 58.2835 -54.1764 250° West  Level FlightAware Approximate
Mon 01:07:00 PM 58.2388 -54.4087 250° West  Level FlightAware Approximate
Mon 01:08:00 PM 58.1936 -54.6404 250° West  Level FlightAware Approximate
Mon 01:09:00 PM 58.1480 -54.8715 250° West  Level FlightAware Approximate
Mon 01:10:00 PM 58.1020 -55.1021 249° West  Level FlightAware Approximate
Mon 01:11:00 PM 58.0556 -55.3320 249° West  Level FlightAware Approximate
Mon 01:12:00 PM 57.9567 -55.4915 221° Southwest  Level Estimated
Mon 01:13:00 PM 57.8577 -55.6501 220° Southwest  Level Estimated
Mon 01:14:00 PM 57.7585 -55.8078 220° Southwest  Level Estimated
Mon 01:15:00 PM 57.6599 -55.9634 220° Southwest  Level Estimated
Mon 01:16:00 PM 57.5612 -56.1181 220° Southwest  Level Estimated
Mon 01:17:00 PM 57.4622 -56.2720 220° Southwest  Level Estimated
Mon 01:18:00 PM 57.3631 -56.4250 220° Southwest  Level Estimated
Mon 01:19:00 PM 57.2637 -56.5772 220° Southwest  Level Estimated
Mon 01:20:00 PM 57.1642 -56.7286 220° Southwest  Level Estimated
Mon 01:21:00 PM 57.0646 -56.8792 219° Southwest  Level Estimated
Mon 01:22:00 PM 56.9647 -57.0289 219° Southwest  Level Estimated
Mon 01:23:00 PM 56.8647 -57.1779 219° Southwest  Level Estimated
Mon 01:24:00 PM 56.7645 -57.3261 219° Southwest  Level Estimated
Mon 01:25:00 PM 56.6641 -57.4734 219° Southwest  Level Estimated
Mon 01:26:00 PM 56.5635 -57.6200 219° Southwest  Level Estimated
Mon 01:27:00 PM 56.4627 -57.7659 219° Southwest  Level Estimated
Mon 01:28:00 PM 56.3618 -57.9109 219° Southwest  Level Estimated
Mon 01:28:24 PM 56.7167 -58.5333 218° Southwest 450 518 36,000  Level Moncton Center
Mon 01:29:00 PM 56.2608 -58.0552 218° Southwest  Level Estimated
Mon 01:29:24 PM 56.6000 -58.6667 212° Southwest 450 518 36,000  Level Moncton Center
Mon 01:30:00 PM 56.1595 -58.1987 218° Southwest  Level Estimated
Mon 01:30:24 PM 56.5000 -58.8000 216° Southwest 450 518 36,000  Level Moncton Center
Mon 01:31:00 PM 56.0593 -58.3398 218° Southwest  Level Estimated
Mon 01:31:24 PM 56.4000 -58.9500 220° Southwest 450 518 36,000  Level Moncton Center
Mon 01:32:00 PM 55.9590 -58.4801 218° Southwest  Level Estimated
Mon 01:32:24 PM 56.3000 -59.0500 209° Southwest 450 518 36,000  Level Moncton Center
Mon 01:33:00 PM 55.8584 -58.6197 218° Southwest  Level Estimated
Mon 01:33:24 PM 56.1833 -59.1833 212° Southwest 450 518 36,000  Level Moncton Center
Mon 01:34:24 PM 56.1000 -59.3167 222° Southwest 450 518 36,000  Level Moncton Center
Mon 01:35:24 PM 56.0000 -59.4167 209° Southwest 450 518 36,000  Level Moncton Center
Mon 01:36:24 PM 55.8833 -59.5500 213° Southwest 450 518 36,000  Level Moncton Center
Mon 01:37:24 PM 55.7833 -59.6833 217° Southwest 450 518 36,000  Level Moncton Center
Mon 01:38:24 PM 55.6833 -59.8167 217° Southwest 450 518 36,000  Level Moncton Center
Mon 01:39:24 PM 55.5833 -59.9167 209° Southwest 450 518 36,000  Level Moncton Center
Mon 01:40:24 PM 55.4667 -60.0333 210° Southwest 450 518 36,000  Level Moncton Center
Mon 01:41:24 PM 55.3667 -60.1667 217° Southwest 450 518 36,000  Level Moncton Center
Mon 01:42:24 PM 55.2667 -60.3000 217° Southwest 450 518 36,000  Level Moncton Center
Mon 01:44:00 PM 55.0757 -60.4448 203° Southwest  Level FlightAware Approximate
Mon 01:45:24 PM 54.9500 -60.6500 203° Southwest 440 506 36,000  Level Moncton Center
Mon 01:46:24 PM 54.8333 -60.7500 206° Southwest 440 506 36,000  Level Moncton Center
Mon 01:47:24 PM 54.7500 -60.8667 219° Southwest 440 506 36,000  Level Moncton Center
Mon 01:48:24 PM 54.6500 -60.9833 214° Southwest 440 506 36,000  Level Moncton Center
Mon 01:49:24 PM 54.5333 -61.1167 214° Southwest 440 506 36,000  Level Moncton Center
Mon 01:50:24 PM 54.4333 -61.2167 210° Southwest 440 506 36,000  Level Moncton Center
Mon 01:51:24 PM 54.3167 -61.3333 210° Southwest 440 506 36,000  Level Moncton Center
Mon 01:52:24 PM 54.2167 -61.4167 206° Southwest 440 506 36,000  Level Moncton Center
Mon 01:53:24 PM 54.1167 -61.5500 218° Southwest 440 506 36,000  Level Moncton Center
Mon 01:54:24 PM 54.0167 -61.6667 214° Southwest 440 506 36,000  Level Moncton Center
Mon 01:55:24 PM 53.9000 -61.7833 211° Southwest 440 506 36,000  Level Moncton Center
Mon 01:56:24 PM 53.8000 -61.8833 211° Southwest 440 506 36,000  Level Moncton Center
Mon 01:57:23 PM 53.7000 -62.0000 215° Southwest 440 506 36,000  Level Moncton Center
Mon 01:58:24 PM 53.6000 -62.0833 206° Southwest 440 506 36,000  Level Moncton Center
Mon 01:59:23 PM 53.4833 -62.2000 211° Southwest 440 506 36,000  Level Moncton Center
Mon 02:00:24 PM 53.3833 -62.3167 215° Southwest 440 506 36,000  Level Moncton Center
Mon 02:01:24 PM 53.2833 -62.4167 211° Southwest 440 506 36,000  Level Moncton Center
Mon 02:02:24 PM 53.1667 -62.5333 211° Southwest 440 506 36,000  Level Moncton Center
Mon 02:03:23 PM 53.0833 -62.6500 220° Southwest 440 506 36,000  Level Moncton Center
Mon 02:04:24 PM 52.9667 -62.7333 203° Southwest 440 506 36,000  Level Moncton Center
Mon 02:05:24 PM 52.8667 -62.8500 215° Southwest 430 495 36,000  Level Moncton Center
Mon 02:06:24 PM 52.7667 -62.9333 207° Southwest 430 495 36,000  Level Moncton Center
Mon 02:07:24 PM 52.6667 -63.0500 215° Southwest 430 495 36,000  Level Moncton Center
Mon 02:08:24 PM 52.5667 -63.1667 215° Southwest 430 495 36,000  Level Moncton Center
Mon 02:09:23 PM 52.4500 -63.2500 204° Southwest 430 495 36,000  Level Moncton Center
Mon 02:10:24 PM 52.3500 -63.3333 207° Southwest 440 506 36,000  Level Moncton Center
Mon 02:11:23 PM 52.2333 -63.4167 204° Southwest 440 506 36,000  Level Moncton Center
Mon 02:12:23 PM 52.1167 -63.5000 204° Southwest 430 495 36,000  Level Moncton Center
Mon 02:13:23 PM 52.0167 -63.5833 207° Southwest 430 495 36,000  Level Moncton Center
Mon 02:14:24 PM 51.9167 -63.7000 216° Southwest 430 495 36,000  Level Moncton Center
Mon 02:15:24 PM 51.8000 -63.7667 199° South 430 495 36,000  Level Moncton Center
Mon 02:16:24 PM 51.6833 -63.8500 204° Southwest 440 506 36,000  Level Moncton Center
Mon 02:17:24 PM 51.5833 -63.9333 207° Southwest 440 506 36,000  Level Moncton Center
Mon 02:18:24 PM 51.4667 -64.0167 204° Southwest 440 506 36,000  Level Moncton Center
Mon 02:19:24 PM 51.3667 -64.1000 207° Southwest 440 506 36,000  Level Moncton Center
Mon 02:20:23 PM 51.2500 -64.2167 212° Southwest 440 506 36,000  Level Moncton Center
Mon 02:21:23 PM 51.1333 -64.2833 200° South 440 506 36,000  Level Moncton Center
Mon 02:22:23 PM 51.0167 -64.3667 204° Southwest 440 506 36,000  Level Moncton Center
Mon 02:23:23 PM 50.9167 -64.4500 208° Southwest 440 506 36,000  Level Moncton Center
Mon 02:24:23 PM 50.8167 -64.5333 208° Southwest 440 506 36,000  Level Moncton Center
Mon 02:25:23 PM 50.7000 -64.6167 204° Southwest 440 506 36,000  Level Moncton Center
Mon 02:26:23 PM 50.5833 -64.6833 200° South 440 506 36,000  Level Moncton Center
Mon 02:27:23 PM 50.4667 -64.7833 209° Southwest 440 506 36,000  Level Moncton Center
Mon 02:28:23 PM 50.3667 -64.8667 208° Southwest 440 506 36,000  Level Moncton Center
Mon 02:29:23 PM 50.2500 -64.9500 205° Southwest 440 506 36,000  Level Moncton Center
Mon 02:30:24 PM 50.1500 -65.0167 203° Southwest 440 506 36,000  Level Moncton Center
Mon 02:31:23 PM 50.0167 -65.1000 202° Southwest 440 506 36,000  Level Moncton Center
Mon 02:32:23 PM 49.9000 -65.1833 205° Southwest 440 506 36,000  Level Moncton Center
Mon 02:33:23 PM 49.8000 -65.2500 203° Southwest 440 506 36,000  Level Moncton Center
Mon 02:34:23 PM 49.6833 -65.3500 209° Southwest 440 506 36,000  Level Moncton Center
Mon 02:35:23 PM 49.5667 -65.4333 205° Southwest 440 506 36,000  Level Moncton Center
Mon 02:36:23 PM 49.4500 -65.5000 200° South 440 506 36,000  Level Moncton Center
Mon 02:37:23 PM 49.3500 -65.5833 209° Southwest 450 518 36,000  Level Moncton Center
Mon 02:38:23 PM 49.2333 -65.6500 200° South 450 518 36,000  Level Moncton Center
Mon 02:39:23 PM 49.1167 -65.7500 209° Southwest 450 518 36,000  Level Moncton Center
Mon 02:40:23 PM 49.0167 -65.8333 209° Southwest 450 518 36,000  Level Moncton Center
Mon 02:41:23 PM 48.9000 -65.9000 201° Southwest 450 518 36,000  Level Moncton Center
Mon 02:42:23 PM 48.7833 -65.9667 201° Southwest 450 518 36,000  Level Moncton Center
Mon 02:43:23 PM 48.6667 -66.0667 210° Southwest 460 529 36,000  Level Moncton Center
Mon 02:44:23 PM 48.5333 -66.1500 202° Southwest 460 529 36,000  Level Moncton Center
Mon 02:45:23 PM 48.4333 -66.2167 204° Southwest 460 529 36,000  Level Moncton Center
Mon 02:47:23 PM 48.2000 -66.3833 205° Southwest 450 518 36,000  Level Moncton Center
Mon 02:48:23 PM 48.0833 -66.4500 201° Southwest 450 518 36,000  Level Moncton Center
Mon 02:49:23 PM 47.9667 -66.5167 201° Southwest 460 529 36,000  Level Moncton Center
Mon 02:50:23 PM 47.8500 -66.6167 210° Southwest 460 529 36,000  Level Moncton Center
Mon 02:52:20 PM 47.6394 -66.7586 204° Southwest 466 536 36,000  Level Boston Center
Mon 02:53:20 PM 47.5219 -66.8325 203° Southwest 466 536 36,000  Level Boston Center
Mon 02:54:20 PM 47.4069 -66.9086 204° Southwest 466 536 36,000  Level Boston Center
Mon 02:55:20 PM 47.2939 -66.9844 204° Southwest 466 536 36,000  Level Boston Center
Mon 02:56:23 PM 47.1500 -67.0500 197° South 450 518 36,000  Level Moncton Center
Mon 02:57:20 PM 47.0606 -67.1203 208° Southwest 461 531 36,000  Level Boston Center
Mon 03:02:52 PM 46.6710 -67.3720 208° Southwest 36,000  Level FlightAware ADS-B
Mon 03:03:31 PM 46.3690 -67.5600 203° Southwest 432 497 36,000  Level FlightAware ADS-B
Mon 03:04:07 PM 46.3130 -67.5940 203° Southwest 432 497 36,000  Level FlightAware ADS-B
Mon 03:04:47 PM 46.2350 -67.6420 203° Southwest 425 489 36,000  Level FlightAware ADS-B
Mon 03:05:27 PM 46.1590 -67.6890 203° Southwest 437 503 36,000  Level FlightAware ADS-B
Mon 03:06:11 PM 46.0760 -67.7390 203° Southwest 440 506 36,000  Level FlightAware ADS-B
Mon 03:06:57 PM 45.9890 -67.7920 203° Southwest 440 506 36,000  Level FlightAware ADS-B
Mon 03:07:31 PM 45.9260 -67.8300 203° Southwest 438 504 36,000  Level FlightAware ADS-B
Mon 03:08:07 PM 45.8600 -67.8710 203° Southwest 424 488 36,000  Level FlightAware ADS-B
Mon 03:08:52 PM 45.7790 -67.9200 203° Southwest 420 483 36,000  Level FlightAware ADS-B
Mon 03:09:32 PM 45.7040 -67.9650 203° Southwest 421 484 36,000  Level FlightAware ADS-B
Mon 03:10:17 PM 45.6220 -68.0140 203° Southwest 421 484 36,000  Level FlightAware ADS-B
Mon 03:10:53 PM 45.5570 -68.0530 203° Southwest 421 484 36,000  Level FlightAware ADS-B
Mon 03:11:47 PM 45.4630 -68.1090 203° Southwest 426 490 36,000  Level FlightAware ADS-B
Mon 03:12:29 PM 45.3780 -68.1600 203° Southwest 427 491 36,000  Level FlightAware ADS-B
Mon 03:13:11 PM 45.3020 -68.2050 203° Southwest 429 494 36,000  Level FlightAware ADS-B
Mon 03:13:53 PM 45.2260 -68.2500 203° Southwest 428 493 36,000  Level FlightAware ADS-B
Mon 03:14:33 PM 45.1530 -68.2930 203° Southwest 426 490 36,000  Level FlightAware ADS-B
Mon 03:15:20 PM 45.0710 -68.3410 202° Southwest 427 491 36,000  Level FlightAware ADS-B
Mon 03:15:59 PM 44.9970 -68.3840 202° Southwest 425 489 36,000  Level FlightAware ADS-B
Mon 03:16:37 PM 44.9260 -68.4260 203° Southwest 423 487 36,000  Level FlightAware ADS-B
Mon 03:17:25 PM 44.8410 -68.4750 202° Southwest 421 484 36,000  Level FlightAware ADS-B
Mon 03:18:04 PM 44.7710 -68.5160 203° Southwest 420 483 36,000  Level FlightAware ADS-B
Mon 03:18:50 PM 44.6900 -68.5630 202° Southwest 421 484 36,000  Level FlightAware ADS-B
Mon 03:19:30 PM 44.6160 -68.6060 202° Southwest 422 486 36,000  Level FlightAware ADS-B
Mon 03:20:14 PM 44.5370 -68.6510 202° Southwest 421 484 36,000  Level FlightAware ADS-B
Mon 03:20:56 PM 44.4620 -68.6950 203° Southwest 421 484 36,000  Level FlightAware ADS-B
Mon 03:21:20 PM 44.4190 -68.7190 202° Southwest 420 483 36,000  Level FlightAware ADS-B
Mon 03:22:00 PM 44.3460 -68.7610 202° Southwest 420 483 36,000  Level FlightAware ADS-B
Mon 03:22:38 PM 44.2780 -68.8000 202° Southwest 420 483 36,000  Level FlightAware ADS-B
Mon 03:23:20 PM 44.2030 -68.8420 202° Southwest 422 486 36,000  Level FlightAware ADS-B
Mon 03:23:59 PM 44.1330 -68.8820 202° Southwest 425 489 36,000  Level FlightAware ADS-B
Mon 03:24:39 PM 44.0600 -68.9230 202° Southwest 426 490 36,000  Level FlightAware ADS-B
Mon 03:25:31 PM 43.9670 -68.9760 202° Southwest 427 491 36,000  Level FlightAware ADS-B
Mon 03:26:16 PM 43.8810 -69.0250 202° Southwest 428 493 36,000  Level FlightAware ADS-B
Mon 03:26:53 PM 43.8220 -69.0580 202° Southwest 36,000  Level FlightAware ADS-B
Mon 03:27:36 PM 43.7430 -69.1020 202° Southwest 419 482 36,000  Level FlightAware ADS-B
Mon 03:28:22 PM 43.6550 -69.1510 202° Southwest 425 489 36,000  Level FlightAware ADS-B
Mon 03:29:06 PM 43.5710 -69.1970 202° Southwest 427 491 36,000  Level FlightAware ADS-B
Mon 03:29:32 PM 43.5220 -69.2240 202° Southwest 429 494 36,000  Level FlightAware ADS-B
Mon 03:30:08 PM 43.4560 -69.2610 202° Southwest 431 496 36,000  Level FlightAware ADS-B
Mon 03:31:04 PM 43.3540 -69.3170 202° Southwest 430 495 36,000  Level FlightAware ADS-B
Mon 03:31:45 PM 43.2800 -69.3580 202° Southwest 421 484 36,000  Level FlightAware ADS-B
Mon 03:32:19 PM 43.2180 -69.3920 202° Southwest 418 481 36,000  Level FlightAware ADS-B
Mon 03:33:00 PM 43.1430 -69.4330 202° Southwest 414 476 36,000  Level FlightAware ADS-B
Mon 03:33:45 PM 43.0640 -69.4770 202° Southwest 423 487 36,000  Level FlightAware ADS-B
Mon 03:34:18 PM 42.9990 -69.5120 201° Southwest 423 487 36,000  Level FlightAware ADS-B
Mon 03:34:59 PM 42.9260 -69.5520 202° Southwest 416 479 36,000  Level FlightAware ADS-B
Mon 03:35:59 PM 42.8160 -69.6110 201° Southwest 417 480 36,000  Level FlightAware ADS-B
Mon 03:36:39 PM 42.7430 -69.6510 202° Southwest 417 480 36,000  Level FlightAware ADS-B
Mon 03:37:19 PM 42.6710 -69.6900 202° Southwest 416 479 36,000  Level FlightAware ADS-B
Mon 03:37:55 PM 42.6060 -69.7240 201° Southwest 416 479 36,000  Level FlightAware ADS-B
Mon 03:38:39 PM 42.5250 -69.7680 202° Southwest 418 481 36,000  Level FlightAware ADS-B
Mon 03:39:19 PM 42.4530 -69.8060 201° Southwest 417 480 36,000  Level FlightAware ADS-B
Mon 03:40:04 PM 42.3690 -69.8510 202° Southwest 419 482 36,000  Level FlightAware ADS-B
Mon 03:40:39 PM 42.3050 -69.8850 201° Southwest 419 482 36,000  Level FlightAware ADS-B
Mon 03:41:19 PM 42.2300 -69.9250 202° Southwest 419 482 36,000  Level FlightAware ADS-B
Mon 03:42:05 PM 42.1490 -69.9680 201° Southwest 429 494 36,000  Level FlightAware ADS-B
Mon 03:42:39 PM 42.0850 -70.0040 203° Southwest 426 490 36,000  Level FlightAware ADS-B
Mon 03:43:24 PM 42.0100 -70.0650 211° Southwest 419 482 36,000  Level FlightAware ADS-B
Mon 03:44:16 PM 41.9390 -70.1510 222° Southwest 409 471 36,000  Level FlightAware ADS-B
Mon 03:45:10 PM 41.8680 -70.2560 228° Southwest 410 472 36,000  Level FlightAware ADS-B
Mon 03:45:54 PM 41.8100 -70.3410 228° Southwest 410 472 36,000  Level FlightAware ADS-B
Mon 03:46:34 PM 41.7600 -70.4140 227° Southwest 410 472 36,000  Level FlightAware ADS-B
Mon 03:47:19 PM 41.6980 -70.5050 228° Southwest 411 473 36,000  Level FlightAware ADS-B
Mon 03:48:09 PM 41.6350 -70.5950 227° Southwest 414 476 36,000  Level FlightAware ADS-B
Mon 03:48:49 PM 41.5860 -70.6660 227° Southwest 415 478 36,000  Level FlightAware ADS-B
Mon 03:49:31 PM 41.5280 -70.7510 228° Southwest 422 486 36,000  Level FlightAware ADS-B
Mon 03:50:11 PM 41.4720 -70.8310 227° Southwest 423 487 36,000  Level FlightAware ADS-B
Mon 03:50:51 PM 41.4180 -70.9070 227° Southwest 423 487 36,000  Level FlightAware ADS-B
Mon 03:51:36 PM 41.3580 -70.9940 227° Southwest 421 484 36,000  Level FlightAware ADS-B
Mon 03:52:17 PM 41.3070 -71.0670 227° Southwest 416 479 36,000  Level FlightAware ADS-B
Mon 03:52:56 PM 41.2600 -71.1530 234° Southwest 413 475 36,000  Level FlightAware ADS-B
Mon 03:53:41 PM 41.2230 -71.2520 244° Southwest 413 475 36,000  Level FlightAware ADS-B
Mon 03:54:21 PM 41.1960 -71.3490 250° West 416 479 36,000  Level FlightAware ADS-B
Mon 03:55:06 PM 41.1650 -71.4570 249° West 418 481 36,000  Level FlightAware ADS-B
Mon 03:55:46 PM 41.1400 -71.5480 250° West 418 481 36,000  Level FlightAware ADS-B
Mon 03:56:23 PM 41.1130 -71.6430 249° West 418 481 36,000  Level FlightAware ADS-B
Mon 03:57:07 PM 41.0830 -71.7490 249° West 419 482 36,000  Level FlightAware ADS-B
Mon 03:57:57 PM 41.0500 -71.8640 249° West 420 483 36,000  Level FlightAware ADS-B
Mon 03:58:34 PM 41.0222 -71.9602 249° West 419 482 36,000  Level FlightAware ADS-B
Mon 03:58:47 PM 41.0131 -71.9891 247° West 417 480 36,000  Level FlightAware ADS-B
Mon 03:58:59 PM 41.0002 -72.0164 238° Southwest 419 482 36,000  Level FlightAware ADS-B
Mon 03:59:11 PM 40.9855 -72.0385 229° Southwest 421 484 36,000  Level FlightAware ADS-B
Mon 03:59:50 PM 40.9299 -72.1089 224° Southwest 421 484 36,000  Level FlightAware ADS-B
Mon 04:00:21 PM 40.8871 -72.1641 224° Southwest 421 484 36,000  Level FlightAware ADS-B
Mon 04:00:55 PM 40.8392 -72.2256 224° Southwest 421 484 36,000  Level FlightAware ADS-B
Mon 04:01:26 PM 40.7971 -72.2799 224° Southwest 421 484 36,000  Level FlightAware ADS-B
Mon 04:01:57 PM 40.7536 -72.3363 224° Southwest 421 484 36,000  Level FlightAware ADS-B
Mon 04:02:33 PM 40.7034 -72.4011 224° Southwest 422 486 36,000  Level FlightAware ADS-B
Mon 04:03:24 PM 40.6318 -72.4932 224° Southwest 424 488 36,000  Level FlightAware ADS-B
Mon 04:04:21 PM 40.5517 -72.5958 224° Southwest 426 490 36,000  Level FlightAware ADS-B
Mon 04:05:01 PM 40.4970 -72.6650 224° Southwest 424 488 36,000  Level FlightAware ADS-B
Mon 04:05:47 PM 40.4309 -72.7497 224° Southwest 426 490 36,000  Level FlightAware ADS-B
Mon 04:06:18 PM 40.3873 -72.8052 224° Southwest 425 489 36,000  Level FlightAware ADS-B
Mon 04:07:00 PM 40.3274 -72.8812 224° Southwest 426 490 36,000  Level FlightAware ADS-B
Mon 04:07:49 PM 40.2580 -72.9689 224° Southwest 428 493 36,000  Level FlightAware ADS-B
Mon 04:08:26 PM 40.2050 -73.0358 224° Southwest 431 496 36,000  Level FlightAware ADS-B
Mon 04:09:02 PM 40.1532 -73.1009 224° Southwest 432 497 36,000  Level FlightAware ADS-B
Mon 04:09:34 PM 40.1074 -73.1584 224° Southwest 433 498 36,000  Level FlightAware ADS-B
Mon 04:10:04 PM 40.0640 -73.2128 224° Southwest 434 499 36,000  Level FlightAware ADS-B
Mon 04:10:36 PM 40.0186 -73.2695 224° Southwest 434 499 36,000  Level FlightAware ADS-B
Mon 04:11:06 PM 39.9749 -73.3242 224° Southwest 434 499 36,000  Level FlightAware ADS-B
Mon 04:11:39 PM 39.9264 -73.3846 224° Southwest 434 499 36,000  Level FlightAware ADS-B
Mon 04:12:11 PM 39.8810 -73.4410 224° Southwest 434 499 36,000  Level FlightAware ADS-B
Mon 04:13:07 PM 39.7993 -73.5424 224° Southwest 434 499 36,000  Level FlightAware ADS-B
Mon 04:13:38 PM 39.7539 -73.5985 224° Southwest 436 502 36,000  Level FlightAware ADS-B
Mon 04:14:10 PM 39.7078 -73.6554 224° Southwest 438 504 36,000  Level FlightAware ADS-B
Mon 04:14:41 PM 39.6637 -73.7096 223° Southwest 439 505 36,000  Level FlightAware ADS-B
Mon 04:15:12 PM 39.6157 -73.7687 223° Southwest 440 506 36,000  Level FlightAware ADS-B
Mon 04:15:43 PM 39.5707 -73.8239 223° Southwest 440 506 36,000  Level FlightAware ADS-B
Mon 04:16:13 PM 39.5258 -73.8789 223° Southwest 441 507 36,000  Level FlightAware ADS-B
Mon 04:16:46 PM 39.4765 -73.9392 223° Southwest 442 509 36,000  Level FlightAware ADS-B
Mon 04:17:21 PM 39.4268 -73.9997 223° Southwest 444 511 36,000  Level FlightAware ADS-B
Mon 04:17:40 PM 39.3951 -74.0361 222° Southwest 446 513 36,000  Level FlightAware ADS-B
Mon 04:18:11 PM 39.3471 -74.0879 220° Southwest 447 514 36,000  Level FlightAware ADS-B
Mon 04:18:41 PM 39.3011 -74.1386 220° Southwest 447 514 36,000  Level FlightAware ADS-B
Mon 04:19:22 PM 39.2369 -74.2087 220° Southwest 447 514 36,000  Level FlightAware ADS-B
Mon 04:19:52 PM 39.1874 -74.2626 220° Southwest 446 513 36,000  Level FlightAware ADS-B
Mon 04:20:22 PM 39.1403 -74.3136 220° Southwest 446 513 36,000  Level FlightAware ADS-B
Mon 04:20:53 PM 39.0918 -74.3662 220° Southwest 448 516 36,000  Level FlightAware ADS-B
Mon 04:21:42 PM 39.0150 -74.4490 220° Southwest 450 518 36,000  Level FlightAware ADS-B
Mon 04:21:54 PM 38.9937 -74.4720 220° Southwest 451 519 36,000  Level FlightAware ADS-B
Mon 04:22:25 PM 38.9450 -74.5245 220° Southwest 452 520 36,000  Level FlightAware ADS-B
Mon 04:22:57 PM 38.8942 -74.5791 220° Southwest 450 518 36,000  Level FlightAware ADS-B
Mon 04:23:44 PM 38.8340 -74.6440 220° Southwest 445 512 36,000  Level FlightAware ADS-B
Mon 04:24:00 PM 38.7943 -74.6860 220° Southwest 448 516 36,000  Level FlightAware ADS-B
Mon 04:24:30 PM 38.7454 -74.7382 220° Southwest 449 517 36,000  Level FlightAware ADS-B
Mon 04:25:00 PM 38.6978 -74.7889 220° Southwest 449 517 36,000  Level FlightAware ADS-B
Mon 04:25:49 PM 38.6205 -74.8712 220° Southwest 450 518 36,000  Level FlightAware ADS-B
Mon 04:26:21 PM 38.5693 -74.9254 220° Southwest 449 517 36,000  Level FlightAware ADS-B
Mon 04:26:53 PM 38.5173 -74.9806 220° Southwest 447 514 36,000  Level FlightAware ADS-B
Mon 04:27:40 PM 38.4428 -75.0593 220° Southwest 446 513 36,000  Level FlightAware ADS-B
Mon 04:28:10 PM 38.3947 -75.1101 220° Southwest 446 513 36,000  Level FlightAware ADS-B
Mon 04:28:44 PM 38.3416 -75.1659 220° Southwest 444 511 36,000  Level FlightAware ADS-B
Mon 04:29:29 PM 38.2710 -75.2400 219° Southwest 442 509 36,000  Level FlightAware ADS-B
Mon 04:30:08 PM 38.2110 -75.3030 220° Southwest 441 507 36,000  Level FlightAware ADS-B
Mon 04:30:56 PM 38.1350 -75.3830 220° Southwest 439 505 36,000  Level FlightAware ADS-B
Mon 04:31:26 PM 38.0870 -75.4320 219° Southwest 437 503 36,000  Level FlightAware ADS-B
Mon 04:31:45 PM 38.0565 -75.4616 217° Southwest 441 507 36,000  Level FlightAware ADS-B
Mon 04:31:55 PM 38.0379 -75.4770 213° Southwest 442 509 36,000  Level FlightAware ADS-B
Mon 04:32:05 PM 38.0202 -75.4903 211° Southwest 443 510 36,000  Level FlightAware ADS-B
Mon 04:32:48 PM 37.9490 -75.5440 211° Southwest 440 506 36,000  Level FlightAware ADS-B
Mon 04:33:30 PM 37.8750 -75.6010 211° Southwest 440 506 36,000  Level FlightAware ADS-B
Mon 04:33:55 PM 37.8304 -75.6352 211° Southwest 442 509 36,000  Level FlightAware ADS-B
Mon 04:34:25 PM 37.7756 -75.6765 211° Southwest 441 507 36,000  Level FlightAware ADS-B
Mon 04:34:56 PM 37.7222 -75.7167 211° Southwest 441 507 36,000  Level FlightAware ADS-B
Mon 04:35:28 PM 37.6657 -75.7593 211° Southwest 443 510 36,000  Level FlightAware ADS-B
Mon 04:36:01 PM 37.6071 -75.8032 211° Southwest 444 511 36,000  Level FlightAware ADS-B
Mon 04:36:32 PM 37.5527 -75.8438 211° Southwest 445 512 36,000  Level FlightAware ADS-B
Mon 04:37:12 PM 37.4769 -75.8872 204° Southwest 445 512 36,000  Level FlightAware ADS-B
Mon 04:37:43 PM 37.4177 -75.9195 203° Southwest 446 513 36,000  Level FlightAware ADS-B
Mon 04:38:18 PM 37.3523 -75.9554 204° Southwest 443 510 36,000  Level FlightAware ADS-B
Mon 04:38:53 PM 37.2862 -75.9910 203° Southwest 445 512 36,000  Level FlightAware ADS-B
Mon 04:39:23 PM 37.2288 -76.0214 203° Southwest 446 513 36,000  Level FlightAware ADS-B
Mon 04:39:50 PM 37.1794 -76.0490 204° Southwest 445 512 36,000  Level FlightAware ADS-B
Mon 04:40:04 PM 37.1543 -76.0668 209° Southwest 443 510 36,000  Level FlightAware ADS-B
Mon 04:40:11 PM 37.1418 -76.0770 213° Southwest 442 509 36,000  Level FlightAware ADS-B
Mon 04:40:32 PM 37.1068 -76.1085 216° Southwest 441 507 36,000  Level FlightAware ADS-B
Mon 04:40:59 PM 37.0688 -76.1563 225° Southwest 437 503 36,000  Level FlightAware ADS-B
Mon 04:41:29 PM 37.0351 -76.2206 237° Southwest 436 502 36,000  Level FlightAware ADS-B
Mon 04:41:43 PM 37.0172 -76.2476 230° Southwest 438 504 36,000  Level FlightAware ADS-B
Mon 04:42:03 PM 36.9855 -76.2779 217° Southwest 443 510 36,000  Level FlightAware ADS-B
Mon 04:42:34 PM 36.9270 -76.3126 205° Southwest 449 517 36,000  Level FlightAware ADS-B
Mon 04:43:17 PM 36.8469 -76.3628 207° Southwest 454 522 36,000  Level FlightAware ADS-B
Mon 04:43:59 PM 36.7700 -76.4110 207° Southwest 456 525 36,000  Level FlightAware ADS-B
Mon 04:44:52 PM 36.6760 -76.4700 207° Southwest 457 526 36,000  Level FlightAware ADS-B
Mon 04:46:08 PM 36.5290 -76.5620 207° Southwest 454 522 36,000  Level FlightAware ADS-B
Mon 04:46:52 PM 36.4450 -76.6140 206° Southwest 451 519 36,000  Level FlightAware ADS-B
Mon 04:47:33 PM 36.3700 -76.6610 207° Southwest 450 518 36,000  Level FlightAware ADS-B
Mon 04:48:18 PM 36.2860 -76.7120 206° Southwest 451 519 36,000  Level FlightAware ADS-B
Mon 04:48:58 PM 36.2110 -76.7590 207° Southwest 450 518 36,000  Level FlightAware ADS-B
Mon 04:49:38 PM 36.1360 -76.8050 206° Southwest 452 520 36,000  Level FlightAware ADS-B
Mon 04:50:18 PM 36.0620 -76.8500 206° Southwest 453 521 36,000  Level FlightAware ADS-B
Mon 04:50:58 PM 35.9870 -76.8960 206° Southwest 447 514 36,000  Level FlightAware ADS-B
Mon 04:51:38 PM 35.9130 -76.9420 207° Southwest 447 514 36,000  Level FlightAware ADS-B
Mon 04:52:37 PM 35.7980 -77.0120 206° Southwest 454 522 36,000  Level FlightAware ADS-B
Mon 04:53:17 PM 35.7230 -77.0580 206° Southwest 448 516 36,000  Level FlightAware ADS-B
Mon 04:54:18 PM 35.6250 -77.1160 206° Southwest 449 517 36,000  Level FlightAware ADS-B
Mon 04:54:54 PM 35.5680 -77.1510 207° Southwest 449 517 36,000  Level FlightAware ADS-B
Mon 04:55:42 PM 35.4920 -77.1960 206° Southwest 449 517 36,000  Level FlightAware ADS-B
Mon 04:56:19 PM 35.4330 -77.2310 206° Southwest 449 517 36,000  Level FlightAware ADS-B
Mon 04:56:56 PM 35.3740 -77.2670 206° Southwest 449 517 36,000  Level FlightAware ADS-B
Mon 04:57:45 PM 35.2960 -77.3130 206° Southwest 449 517 36,000  Level FlightAware ADS-B
Mon 04:58:21 PM 35.2390 -77.3470 206° Southwest 449 517 36,000  Level FlightAware ADS-B
Mon 04:59:09 PM 35.1630 -77.3930 206° Southwest 449 517 36,000  Level FlightAware ADS-B
Mon 04:59:45 PM 35.1060 -77.4270 206° Southwest 449 517 36,000  Level FlightAware ADS-B
Mon 04:59:57 PM 35.0870 -77.4380 205° Southwest 449 517 36,000  Level FlightAware ADS-B
Mon 05:01:00 PM 34.9870 -77.4980 206° Southwest 449 517 36,000  Level FlightAware ADS-B
Mon 05:01:48 PM 34.9110 -77.5430 206° Southwest 449 517 36,000  Level FlightAware ADS-B
Mon 05:02:25 PM 34.8520 -77.5780 206° Southwest 449 517 36,000  Level FlightAware ADS-B
Mon 05:03:11 PM 34.7790 -77.6210 206° Southwest 449 517 36,000  Level FlightAware ADS-B
Mon 05:07:58 PM 34.0280 -77.9690 201° Southwest 461 531 36,000  Level FlightAware ADS-B
Mon 05:08:38 PM 33.9470 -77.9920 193° South 462 532 36,000  Level FlightAware ADS-B
Mon 05:09:18 PM 33.8610 -78.0170 194° South 464 534 36,000  Level FlightAware ADS-B
Mon 05:09:53 PM 33.7870 -78.0380 193° South 462 532 36,000  Level FlightAware ADS-B
Mon 05:10:38 PM 33.6980 -78.0630 193° South 462 532 36,000  Level FlightAware ADS-B
Mon 05:11:14 PM 33.6350 -78.0810 193° South 462 532 36,000  Level FlightAware ADS-B
Mon 05:11:58 PM 33.5280 -78.1120 194° South 461 531 36,000  Level FlightAware ADS-B
Mon 05:12:38 PM 33.4510 -78.1340 193° South 462 532 36,000  Level FlightAware ADS-B
Mon 05:13:57 PM 33.2990 -78.1770 193° South 464 534 36,000  Level FlightAware ADS-B
Mon 05:14:28 PM 33.2160 -78.2010 194° South 466 536 36,000  Level FlightAware ADS-B
Mon 05:15:08 PM 33.1370 -78.2240 194° South 466 536 36,000  Level FlightAware ADS-B
Mon 05:15:48 PM 33.0460 -78.2490 193° South 465 535 36,000  Level FlightAware ADS-B
Mon 05:16:33 PM 32.9530 -78.2750 193° South 465 535 36,000  Level FlightAware ADS-B
Mon 05:17:18 PM 32.8590 -78.3020 194° South 463 533 36,000  Level FlightAware ADS-B
Mon 05:17:58 PM 32.7820 -78.3230 193° South 462 532 36,000  Level FlightAware ADS-B
Mon 05:18:38 PM 32.6950 -78.3480 194° South 462 532 36,000  Level FlightAware ADS-B
Mon 05:19:18 PM 32.6080 -78.3720 193° South 463 533 36,000  Level FlightAware ADS-B
Mon 05:19:53 PM 32.5350 -78.3920 193° South 464 534 36,000  Level FlightAware ADS-B
Mon 05:20:42 PM 32.4480 -78.4160 193° South 464 534 36,000  Level FlightAware ADS-B
Mon 05:21:18 PM 32.3840 -78.4340 193° South 464 534 36,000  Level FlightAware ADS-B
Mon 05:21:55 PM 32.3180 -78.4520 193° South 464 534 36,000  Level FlightAware ADS-B
Mon 05:22:43 PM 32.2330 -78.4750 193° South 464 534 36,000  Level FlightAware ADS-B
Mon 05:23:19 PM 32.1690 -78.4920 193° South 464 534 36,000  Level FlightAware ADS-B
Mon 05:23:56 PM 32.1030 -78.5100 193° South 464 534 36,000  Level FlightAware ADS-B
Mon 05:24:44 PM 32.0180 -78.5340 193° South 464 534 36,000  Level FlightAware ADS-B
Mon 05:25:32 PM 31.9330 -78.5570 193° South 464 534 36,000  Level FlightAware ADS-B
Mon 05:26:08 PM 31.8690 -78.5740 193° South 464 534 36,000  Level FlightAware ADS-B
Mon 05:26:44 PM 31.8050 -78.5920 193° South 464 534 36,000  Level FlightAware ADS-B
Mon 05:27:20 PM 31.7410 -78.6090 193° South 464 534 36,000  Level FlightAware ADS-B
Mon 05:28:10 PM 31.6520 -78.6330 193° South 464 534 36,000  Level FlightAware ADS-B
Mon 05:28:44 PM 31.5910 -78.6490 193° South 464 534 36,000  Level FlightAware ADS-B
Mon 05:29:20 PM 31.5270 -78.6670 193° South 464 534 36,000  Level FlightAware ADS-B
Mon 05:30:06 PM 31.2617 -78.7467 193° South 467 537 36,000  Level Jacksonville Center
Mon 05:31:06 PM 31.1375 -78.7811 193° South 467 537 36,000  Level Jacksonville Center
Mon 05:32:06 PM 31.0114 -78.8158 193° South 467 537 36,000  Level Jacksonville Center
Mon 05:33:06 PM 30.8992 -78.8400 190° South 467 537 36,000  Level Jacksonville Center
Mon 05:34:06 PM 30.7753 -78.8767 194° South 467 537 36,000  Level Jacksonville Center
Mon 05:36:06 PM 30.5214 -78.9428 193° South 463 533 36,000  Level Miami Center
Mon 05:37:06 PM 30.3981 -78.9742 192° South 463 533 36,000  Level Miami Center
Mon 05:38:06 PM 30.2725 -79.0100 194° South 468 539 36,000  Level Miami Center
Mon 05:39:06 PM 30.1531 -79.0411 193° South 466 536 36,000  Level Miami Center
Mon 05:40:06 PM 30.0233 -79.0744 193° South 466 536 36,000  Level Miami Center
Mon 05:41:06 PM 29.8978 -79.1150 196° South 466 536 36,000  Level Miami Center
Mon 05:42:06 PM 29.7722 -79.1433 191° South 471 542 36,000  Level Miami Center
Mon 05:43:06 PM 29.6422 -79.1764 192° South 471 542 36,000  Level Miami Center
Mon 05:44:06 PM 29.5186 -79.2144 195° South 471 542 36,000  Level Miami Center
Mon 05:45:06 PM 29.3889 -79.2450 192° South 471 542 36,000  Level Miami Center
Mon 05:46:06 PM 29.2589 -79.2731 191° South 471 542 36,000  Level Miami Center
Mon 05:47:06 PM 29.1353 -79.3106 195° South 471 542 36,000  Level Miami Center
Mon 05:48:06 PM 29.0053 -79.3433 192° South 476 548 36,000  Level Miami Center
Mon 05:49:06 PM 28.8775 -79.3736 192° South 476 548 36,000  Level Miami Center
Mon 05:50:06 PM 28.7475 -79.4064 192° South 471 542 36,000  Level Miami Center
Mon 05:51:06 PM 28.6197 -79.4389 193° South 471 542 36,000  Level Miami Center
Mon 05:56:13 PM 27.9530 -79.6080 193° South 469 540 36,000  Level FlightAware ADS-B
Mon 05:56:59 PM 27.8570 -79.6320 192° South 470 541 36,000  Level FlightAware ADS-B
Mon 05:57:36 PM 27.7850 -79.6500 192° South 470 541 36,000  Level FlightAware ADS-B
Mon 05:58:20 PM 27.6850 -79.6760 193° South 471 542 36,000  Level FlightAware ADS-B
Mon 05:58:56 PM 27.6080 -79.6950 192° South 472 543 36,000  Level FlightAware ADS-B
Mon 05:59:37 PM 27.5210 -79.7170 193° South 472 543 36,000  Level FlightAware ADS-B
Mon 06:00:21 PM 27.4240 -79.7410 192° South 472 543 36,000  Level FlightAware ADS-B
Mon 06:01:05 PM 27.3300 -79.7650 193° South 473 544 36,000  Level FlightAware ADS-B
Mon 06:01:44 PM 27.2490 -79.7850 192° South 473 544 36,000  Level FlightAware ADS-B
Mon 06:02:28 PM 27.1550 -79.8090 193° South 472 543 36,000  Level FlightAware ADS-B
Mon 06:03:07 PM 27.0700 -79.8300 192° South 472 543 36,000  Level FlightAware ADS-B
Mon 06:03:45 PM 26.9970 -79.8480 192° South 465 535 36,000  Level FlightAware ADS-B
Mon 06:04:24 PM 26.9090 -79.8700 193° South 475 547 36,000  Level FlightAware ADS-B
Mon 06:05:07 PM 26.8110 -79.8940 192° South 475 547 36,000  Level FlightAware ADS-B
Mon 06:05:47 PM 26.7250 -79.9160 193° South 475 547 36,000  Level FlightAware ADS-B
Mon 06:06:33 PM 26.6270 -79.9400 192° South 475 547 36,000  Level FlightAware ADS-B
Mon 06:07:14 PM 26.5390 -79.9620 193° South 475 547 36,000  Level FlightAware ADS-B
Mon 06:07:55 PM 26.4500 -79.9840 192° South 474 545 36,000  Level FlightAware ADS-B
Mon 06:08:38 PM 26.3590 -80.0060 192° South 473 544 36,000  Level FlightAware ADS-B
Mon 06:09:19 PM 26.2740 -80.0270 192° South 472 543 36,000  Level FlightAware ADS-B
Mon 06:10:03 PM 26.1760 -80.0510 192° South 472 543 36,000  Level FlightAware ADS-B
Mon 06:10:44 PM 26.0900 -80.0720 192° South 473 544 36,000  Level FlightAware ADS-B
Mon 06:11:24 PM 26.0030 -80.0930 192° South 475 547 36,000  Level FlightAware ADS-B
Mon 06:12:07 PM 25.9110 -80.1160 193° South 478 550 36,000  Level FlightAware ADS-B
Mon 06:12:42 PM 25.8360 -80.1380 195° South 480 552 36,000  Level FlightAware ADS-B
Mon 06:13:19 PM 25.7590 -80.1730 202° Southwest 481 554 36,000  Level FlightAware ADS-B
Mon 06:14:03 PM 25.6770 -80.2260 210° Southwest 480 552 36,000  Level FlightAware ADS-B
Mon 06:14:49 PM 25.5960 -80.2980 219° Southwest 478 550 36,000  Level FlightAware ADS-B
Mon 06:15:30 PM 25.5260 -80.3610 219° Southwest 478 550 36,000  Level FlightAware ADS-B
Mon 06:16:27 PM 25.4290 -80.4490 219° Southwest 480 552 36,000  Level FlightAware ADS-B
Mon 06:17:07 PM 25.3600 -80.5120 220° Southwest 482 555 36,000  Level FlightAware ADS-B
Mon 06:17:43 PM 25.3000 -80.5660 219° Southwest 480 552 36,000  Level FlightAware ADS-B
Mon 06:18:26 PM 25.2240 -80.6350 219° Southwest 476 548 36,000  Level FlightAware ADS-B
Mon 06:19:07 PM 25.1540 -80.6980 219° Southwest 468 539 36,000  Level FlightAware ADS-B
Mon 06:19:44 PM 25.0930 -80.7540 220° Southwest 467 537 36,000  Level FlightAware ADS-B
Mon 06:19:53 PM 25.0760 -80.7680 217° Southwest 467 537 36,000  Level FlightAware ADS-B
Mon 06:21:01 PM 24.9630 -80.8700 219° Southwest 476 548 36,000  Level FlightAware ADS-B
Mon 06:21:39 PM 24.8960 -80.9310 220° Southwest 476 548 36,000  Level FlightAware ADS-B
Mon 06:22:19 PM 24.8280 -80.9920 219° Southwest 479 551 36,000  Level FlightAware ADS-B
Mon 06:22:45 PM 24.7840 -81.0320 220° Southwest 473 544 36,000 -453 Level FlightAware ADS-B
Mon 06:24:05 PM 24.6550 -81.1550 221° Southwest 452 520 35,200 -737 Descending FlightAware ADS-B
Mon 06:24:39 PM 24.6020 -81.2050 221° Southwest 453 521 34,600 -1,050 Descending FlightAware ADS-B
Mon 06:25:25 PM 24.5270 -81.2770 221° Southwest 451 519 33,800 -989 Descending FlightAware ADS-B
Mon 06:26:10 PM 24.4740 -81.3500 231° Southwest 457 526 33,100 -1,037 Descending FlightAware ADS-B
Mon 06:26:46 PM 24.4410 -81.4320 246° West 454 522 32,400 -1,520 Descending FlightAware ADS-B
Mon 06:27:25 PM 24.4100 -81.5090 246° West 449 517 31,200 -1,950 Descending FlightAware ADS-B
Mon 06:28:06 PM 24.3710 -81.6050 246° West 446 513 29,800 -1,948 Descending FlightAware ADS-B
Mon 06:28:42 PM 24.3410 -81.6800 246° West 440 506 28,700 -1,704 Descending FlightAware ADS-B
Mon 06:29:27 PM 24.3050 -81.7710 247° West 429 494 27,500 -1,694 Descending FlightAware ADS-B
Mon 06:30:07 PM 24.2730 -81.8480 246° West 423 487 26,300 -1,792 Descending FlightAware ADS-B
Mon 06:30:44 PM 24.2440 -81.9220 247° West 419 482 25,200 -1,644 Descending FlightAware ADS-B
Mon 06:31:20 PM 24.2180 -81.9850 246° West 415 478 24,300 -1,663 Descending FlightAware ADS-B
Mon 06:32:07 PM 24.1800 -82.0790 246° West 411 473 22,900 -1,663 Descending FlightAware ADS-B
Mon 06:32:43 PM 24.1520 -82.1470 246° West 402 463 22,000 -429 Descending FlightAware ADS-B
Mon 06:33:31 PM 24.1170 -82.2330 246° West 22,000  Level FlightAware ADS-B
Mon 06:34:13 PM 24.0910 -82.3000 247° West 383 441 22,000  Level FlightAware ADS-B
Mon 06:34:49 PM 24.0700 -82.3540 247° West 383 441 22,000 -1,806 Level FlightAware ADS-B
Mon 06:35:46 PM 24.0220 -82.4680 245° Southwest 382 440 19,200 -1,806 Descending FlightAware ADS-B
Mon 06:36:22 PM 24.0010 -82.5230 247° West 382 440 19,200  Level FlightAware ADS-B
Mon 06:37:10 PM 23.9730 -82.5950 247° West 382 440 19,200  Level FlightAware ADS-B
Mon 06:37:46 PM 23.9520 -82.6500 247° West 382 440 19,200  Level FlightAware ADS-B
Mon 06:38:22 PM 23.9310 -82.7040 247° West 382 440 19,200  Level FlightAware ADS-B
Mon 06:43:00 PM 23.3442 -82.5198 164° South  Level Estimated
Mon 06:44:00 PM 23.2176 -82.4802 164° South  Level Estimated
Mon 06:45:00 PM 23.0909 -82.4407 164° South  Level Estimated
Mon 06:46:00 PM 22.9891 -82.4091 164° South  Level Estimated
Mon 06:47:00 PM 22.9891 -82.4091 51° Northeast  Level Estimated
Mon 06:48:00 PM 22.9891 -82.4091 51° Northeast  Level Estimated
Mon 06:49:00 PM 22.9891 -82.4091 51° Northeast  Level Estimated
Mon 06:50:00 PM 22.9891 -82.4091 51° Northeast  Level Estimated
Mon 06:51:00 PM 22.9891 -82.4091 51° Northeast  Level Estimated
Mon 06:52:00 PM 22.9891 -82.4091 51° Northeast  Level Estimated
Mon 06:53:00 PM 22.9891 -82.4091 51° Northeast  Level Estimated
Mon 06:54:00 PM 22.9891 -82.4091 51° Northeast  Level Estimated
Mon 06:55:00 PM 22.9891 -82.4091 51° Northeast  Level Estimated
Mon 06:56:00 PM 22.9891 -82.4091 51° Northeast  Level Estimated
Mon 06:57:00 PM 22.9891 -82.4091 51° Northeast  Level Estimated
Mon 06:58:00 PM 22.9891 -82.4091 51° Northeast  Level Estimated
Mon 06:59:00 PM 22.9891 -82.4091 51° Northeast  Level Estimated
Mon 07:00:00 PM 22.9891 -82.4091 51° Northeast  Level Estimated
Mon 07:01:00 PM 22.9891 -82.4091 51° Northeast  Level Estimated
Mon 07:02:00 PM 22.9891 -82.4091 51° Northeast  Level Estimated
Mon 07:03:00 PM 22.9891 -82.4091 51° Northeast  Level Estimated
Mon 07:04:00 PM 22.9891 -82.4091 51° Northeast  Level Estimated

Login

Don't have an account? Register now (free) for customized features, flight alerts, and more!